Site Date DSCMET_AIRTEMP_MEAN_150_0_01 DSCMET_AIRTEMP_MEAN_1000_0_02 DSCMET_AIRTEMP_MEAN_2000_0_03 DSCMET_AIRTEMP_MEAN_3000_0_04 DSCMET_AIRTEMP_MEAN_4000_0_05 DSCMET_RELHUM_MEAN_150_0_01 DSCMET_DEWPT_MEAN_150_0_01 DSCMET_VPD_MEAN_150_0_01 DSCMET_LWV_MEAN_150_0_01 DSCMET_LWV_MEAN_1000_0_02 DSCMET_LWV_MEAN_2000_0_03 DSCMET_AIRTEMP_MEAN_5000_0_06 DSCMET_RELHUM_MEAN_5000_0_06 DSCMET_DEWPT_MEAN_5000_0_06 DSCMET_VPD_MEAN_5000_0_06 DSCMET_LW_MEAN_3000_0_04 DSCMET_LW_MEAN_4000_0_05 DSCMET_LW_MEAN_5000_0_06 DSCMET_WSPD_SNC_MEAN_150_0_01 DSCMET_WDIR_SNC_MEAN_150_0_01 DSCMET_WSPD_SNC_MEAN_5000_0_02 DSCMET_WDIR_SNC_MEAN_5000_0_02 PRIMET_LW_OUT_MEAN_600_0_02 PRIMET_LW_IN_MEAN_600_0_02 PRIMET_SW_OUT_MEAN_600_0_02 PRIMET_SW_IN_MEAN_600_0_02
DSCMET_COMPS 2018-01-21 22:25:00 3.174 3.281 3.155 3.172 3.167 100.000 3.175 0.000 623.100 422.600 448.400               0.1070 205.500            
DSCMET_COMPS 2018-01-21 22:20:00 3.176 3.285 3.161 3.176 3.175 100.000 3.175 0.000 622.200 417.700 434.000               0.1590 22.170            
DSCMET_COMPS 2018-01-21 22:15:00 3.162 3.307 3.180 3.180 3.179 100.000 3.163 0.000 583.600 413.700 427.400               0.1210 119.100            
DSCMET_COMPS 2018-01-21 22:10:00 3.184 3.280 3.172 3.183 3.163 100.000 3.189 0.000 591.600 421.700 444.000               0.0100 225.400            
DSCMET_COMPS 2018-01-21 22:05:00 3.172 3.271 3.175 3.193 3.188 100.000 3.173 0.000 622.900 406.900 440.800               0.0540 52.820            
DSCMET_COMPS 2018-01-21 22:00:00 3.159 3.303 3.205 3.198 3.179 100.000 3.159 -0.000 601.200 402.500 448.500               0.0730 53.090            
DSCMET_COMPS 2018-01-21 21:55:00 3.179 3.297 3.199 3.201 3.176 100.000 3.181 0.000 637.900 426.100 447.400               0.0530 11.570            
DSCMET_COMPS 2018-01-21 21:50:00 3.174 3.331 3.211 3.201 3.185 100.000 3.174 0.000 641.100 416.300 438.000               0.0100 248.200            
DSCMET_COMPS 2018-01-21 21:45:00 3.159 3.296 3.186 3.201 3.176 100.000 3.157 -0.000 648.900 416.400 428.400                 0.000            
DSCMET_COMPS 2018-01-21 21:40:00 3.220 3.294 3.210 3.202 3.173 100.000 3.226 0.000 618.000 427.600 430.000               0.0060 5.388            
DSCMET_COMPS 2018-01-21 21:35:00 3.208 3.329 3.215 3.208 3.175 100.000 3.208 -0.000 642.900 404.600 431.400               0.0090 330.300            
DSCMET_COMPS 2018-01-21 21:30:00 3.159 3.297 3.207 3.214 3.182 100.000 3.158 -0.000 629.200 429.700 424.000               0.0090 101.900            
DSCMET_COMPS 2018-01-21 21:25:00 3.170 3.312 3.212 3.220 3.188 100.000 3.171 0.000 624.500 418.400 422.700               0.0580 64.620            
DSCMET_COMPS 2018-01-21 21:20:00 3.189 3.310 3.220 3.220 3.212 100.000 3.189 0.000 626.000 403.900 420.100               0.0610 142.400            
DSCMET_COMPS 2018-01-21 21:15:00 3.160 3.299 3.215 3.225 3.213 100.000 3.160 0.000 603.800 404.900 417.700               0.1070 50.090            
DSCMET_COMPS 2018-01-21 21:10:00 3.198 3.309 3.222 3.232 3.219 100.000 3.201 0.000 647.600 408.100 418.300               0.0100 51.790            
DSCMET_COMPS 2018-01-21 21:05:00 3.201 3.323 3.242 3.240 3.212 100.000 3.203 0.000 631.500 413.700 416.700               0.0810 50.020            
DSCMET_COMPS 2018-01-21 21:00:00 3.169 3.333 3.250 3.239 3.194 100.000 3.167 0.000 623.300 405.900 423.600               0.0480 89.600            
DSCMET_COMPS 2018-01-21 20:55:00 3.240 3.340 3.241 3.238 3.203 100.000 3.242 0.000 622.200 412.500 417.800               0.0070 59.040            
DSCMET_COMPS 2018-01-21 20:50:00 3.266 3.361 3.251 3.236 3.203 100.000 3.269 0.000 614.800 412.500 413.700               0.0070 287.200            
DSCMET_COMPS 2018-01-21 20:45:00 3.229 3.346 3.233 3.239 3.205 100.000 3.228 0.000 605.300 411.900 411.800               0.0140 355.300            
DSCMET_COMPS 2018-01-21 20:40:00 3.177 3.322 3.226 3.242 3.211 100.000 3.177 0.000 614.300 425.300 416.000                 0.000            
DSCMET_COMPS 2018-01-21 20:35:00 3.240 3.327 3.240 3.249 3.182 100.000 3.245 0.000 651.900 412.900 447.200                 0.000            
DSCMET_COMPS 2018-01-21 20:30:00 3.262 3.351 3.262 3.251 3.184 100.000 3.264 0.000 600.800 417.300 425.700               0.0600 92.900            
DSCMET_COMPS 2018-01-21 20:25:00 3.245 3.358 3.249 3.258 3.204 100.000 3.245 0.000 617.900 433.200 429.300               0.0000 90.000            
DSCMET_COMPS 2018-01-21 20:20:00 3.243 3.363 3.236 3.260 3.200 100.000 3.243 -0.000 633.500 400.500 432.000               0.0680 101.200            
DSCMET_COMPS 2018-01-21 20:15:00 3.250 3.352 3.241 3.276 3.204 100.000 3.251 0.000 616.800 400.200 436.500               0.0470 90.000            
DSCMET_COMPS 2018-01-21 20:10:00 3.245 3.377 3.264 3.289 3.203 100.000 3.244 0.000 630.500 418.400 427.400               0.0510 86.800            
DSCMET_COMPS 2018-01-21 20:05:00 3.299 3.400 3.289 3.297 3.254 100.000 3.305 0.000 631.600 430.600 431.900               0.0070 107.200            
DSCMET_COMPS 2018-01-21 20:00:00 3.294 3.399 3.297 3.297 3.241 100.000 3.297 -0.000 615.800 429.700 443.600               0.1110 106.300            
DSCMET_COMPS 2018-01-21 19:55:00 3.252 3.395 3.293 3.300 3.253 100.000 3.253 0.000 614.500 420.000 437.000               0.0520 110.200            
DSCMET_COMPS 2018-01-21 19:50:00 3.282 3.397 3.318 3.299 3.257 100.000 3.283 0.000 617.200 423.300 418.900               0.1140 115.300            
DSCMET_COMPS 2018-01-21 19:45:00 3.315 3.445 3.308 3.313 3.241 100.000 3.317 0.000 647.400 427.100 424.200               0.0660 86.900            
DSCMET_COMPS 2018-01-21 19:40:00 3.298 3.444 3.337 3.325 3.217 100.000 3.299 0.000 617.000 414.900 445.600               0.1080 212.300            
DSCMET_COMPS 2018-01-21 19:35:00 3.262 3.393 3.272 3.346 3.240 100.000 3.264 0.000 628.100 425.900 442.800               0.1850 135.200            
DSCMET_COMPS 2018-01-21 19:30:00 3.364 3.427 3.292 3.377 3.258 100.000 3.371 0.000 630.400 422.700 426.100                 0.000            
DSCMET_COMPS 2018-01-21 19:25:00 3.327 3.450 3.337 3.410 3.267 100.000 3.330 0.000 635.000 433.000 437.900               0.1110 99.500            
DSCMET_COMPS 2018-01-21 19:20:00 3.306 3.460 3.350 3.445 3.329 100.000 3.308 -0.000 601.200 445.300 435.000               0.2030 133.500            
DSCMET_COMPS 2018-01-21 19:15:00 3.366 3.487 3.399 3.484 3.351 100.000 3.365 0.000 609.600 427.700 440.900               0.1650 116.600            
DSCMET_COMPS 2018-01-21 19:10:00 3.357 3.525 3.422 3.526 3.363 100.000 3.360 0.000 625.300 420.100 431.500               0.0690 99.900            
DSCMET_COMPS 2018-01-21 19:05:00 3.400 3.557 3.443 3.567 3.350 100.000 3.400 0.000 629.000 430.400 450.600               0.1510 126.300            
DSCMET_COMPS 2018-01-21 19:00:00 3.447 3.597 3.480 3.605 3.426 100.000 3.447 0.000 648.600 428.700 437.500               0.1960 131.700            
DSCMET_COMPS 2018-01-21 18:55:00 3.534 3.625 3.526 3.637 3.429 100.000 3.540 0.000 641.200 417.100 452.400               0.0810 96.600            
DSCMET_COMPS 2018-01-21 18:50:00 3.462 3.649 3.588 3.678 3.482 100.000 3.465 0.000 649.800 424.000 455.800               0.1510 115.800            
DSCMET_COMPS 2018-01-21 18:45:00 3.554 3.702 3.617 3.721 3.561 100.000 3.554 -0.000 635.700 432.400 460.300               0.2300 140.600            
DSCMET_COMPS 2018-01-21 18:40:00 3.620 3.732 3.639 3.760 3.592 100.000 3.621 0.000 679.400 429.200 455.600               0.0950 113.700            
DSCMET_COMPS 2018-01-21 18:35:00 3.654 3.771 3.707 3.794 3.698 100.000 3.656 0.000 659.800 417.500 456.000               0.1750 136.000            
DSCMET_COMPS 2018-01-21 18:30:00 3.659 3.837 3.762 3.817 3.772 100.000 3.661 0.000 665.400 426.700 465.100               0.1450 105.600            
DSCMET_COMPS 2018-01-21 18:25:00 3.698 3.879 3.793 3.832 3.772 100.000 3.699 0.000 675.300 446.100 462.600                 0.000            
DSCMET_COMPS 2018-01-21 18:20:00 3.779 3.874 3.778 3.840 3.778 100.000 3.788 0.000 671.700 454.300 452.200               0.0230 60.000            
DSCMET_COMPS 2018-01-21 18:15:00 3.713 3.888 3.803 3.853 3.852 100.000 3.715 0.000 689.000 456.700 473.900               0.0290 90.400            
DSCMET_COMPS 2018-01-21 18:10:00 3.691 3.882 3.818 3.855 3.865 100.000 3.692 0.000 692.900 440.700 476.100               0.0240 88.300            
DSCMET_COMPS 2018-01-21 18:05:00 3.691 3.898 3.841 3.866 3.816 100.000 3.694 0.000 707.100 456.100 471.700               0.0900 343.600            
DSCMET_COMPS 2018-01-21 18:00:00 3.793 3.882 3.795 3.914 3.735 100.000 3.797 0.000 710.900 452.100 480.100               0.0910 84.800            
DSCMET_COMPS 2018-01-21 17:55:00 3.844 4.003 3.893 3.990 3.792 100.000 3.845 0.000 696.900 473.600 486.000               0.0780 75.720            
DSCMET_COMPS 2018-01-21 17:50:00 3.841 4.026 3.893 4.080 3.788 100.000 3.843 0.000 714.600 477.500 464.400               0.0660 62.640            
DSCMET_COMPS 2018-01-21 17:45:00 4.017 4.155 4.048 4.168 3.790 100.000 4.019 0.000 720.400 485.600 487.800               0.0820 89.700            
DSCMET_COMPS 2018-01-21 17:40:00 4.107 4.212 4.156 4.205 4.064 100.000 4.115 0.000 707.000 485.500 483.700               0.0720 94.100            
DSCMET_COMPS 2018-01-21 17:35:00 4.042 4.211 4.163 4.227 4.168 100.000 4.045 0.000 684.600 461.500 469.000               0.0730 180.600            
DSCMET_COMPS 2018-01-21 17:30:00 4.037 4.198 4.173 4.252 4.178 100.000 4.039 0.000 696.100 445.700 477.700               0.1000 90.000            
DSCMET_COMPS 2018-01-21 17:25:00 4.042 4.201 4.175 4.277 4.218 100.000 4.045 0.000 677.000 442.800 468.300               0.0110 316.100            
DSCMET_COMPS 2018-01-21 17:20:00 4.080 4.214 4.213 4.294 4.246 100.000 4.083 0.000 676.300 443.100 479.300                 0.000            
DSCMET_COMPS 2018-01-21 17:15:00 4.136 4.310 4.280 4.318 4.211 100.000 4.137 0.000 666.700 453.700 461.100               0.0710 286.000            
DSCMET_COMPS 2018-01-21 17:10:00 4.180 4.374 4.281 4.345 4.217 100.000 4.182 0.000 686.100 437.700 443.500               0.1460 155.200            
DSCMET_COMPS 2018-01-21 17:05:00 4.239 4.388 4.289 4.390 4.254 100.000 4.247 0.000 664.800 447.900 463.300               0.1070 100.200            
DSCMET_COMPS 2018-01-21 17:00:00 4.210 4.412 4.349 4.423 4.333 100.000 4.212 0.000 704.200 434.600 453.200               0.1750 4.864            
DSCMET_COMPS 2018-01-21 16:55:00 4.237 4.420 4.366 4.437 4.431 100.000 4.238 0.000 689.500 461.700 468.700               0.0270 120.900            
DSCMET_COMPS 2018-01-21 16:50:00 4.241 4.412 4.378 4.451 4.464 100.000 4.241 0.000 703.900 477.800 458.400               0.0620 314.500            
DSCMET_COMPS 2018-01-21 16:45:00 4.265 4.443 4.404 4.477 4.436 100.000 4.270 0.000 734.600 456.200 456.100               0.2130 4.311            
DSCMET_COMPS 2018-01-21 16:40:00 4.241 4.464 4.445 4.498 4.497 100.000 4.243 0.000 700.500 458.600 460.200               0.1140 271.400            
DSCMET_COMPS 2018-01-21 16:35:00 4.254 4.482 4.453 4.552 4.367 100.000 4.256 0.000 725.900 462.000 457.000               0.0380 237.100            
DSCMET_COMPS 2018-01-21 16:30:00 4.302 4.491 4.500 4.589 4.478 100.000 4.309 0.000 717.700 459.100 469.000               0.0590 298.900            
DSCMET_COMPS 2018-01-21 16:25:00 4.343 4.536 4.524 4.606 4.583 100.000 4.347 0.000 712.400 452.100 464.600               0.1390 304.500            
DSCMET_COMPS 2018-01-21 16:20:00 4.309 4.532 4.515 4.624 4.582 100.000 4.311 0.000 734.000 453.400 472.700               0.0030 120.000            
DSCMET_COMPS 2018-01-21 16:15:00 4.309 4.532 4.553 4.633 4.571 100.000 4.310 0.000 716.700 441.100 462.300                 0.000            
DSCMET_COMPS 2018-01-21 16:10:00 4.319 4.534 4.536 4.640 4.619 100.000 4.322 0.000 710.400 452.100 455.400                 0.000            
DSCMET_COMPS 2018-01-21 16:05:00 4.321 4.545 4.532 4.651 4.647 100.000 4.322 0.000 708.800 457.700 473.000               0.0440 85.600            
DSCMET_COMPS 2018-01-21 16:00:00 4.309 4.543 4.566 4.658 4.624 100.000 4.309 0.000 713.100 482.000 471.200               0.0460 105.300            
DSCMET_COMPS 2018-01-21 15:55:00 4.312 4.554 4.565 4.658 4.600 100.000 4.314 0.000 708.600 453.000 471.500               0.1450 253.300            
DSCMET_COMPS 2018-01-21 15:50:00 4.373 4.524 4.570 4.644 4.648 100.000 4.380 0.000 709.400 451.000 480.000               0.2330 36.310            
DSCMET_COMPS 2018-01-21 15:45:00 4.310 4.520 4.557 4.653 4.627 100.000 4.313 0.000 700.500 461.500 490.900               0.0780 253.900            
DSCMET_COMPS 2018-01-21 15:40:00 4.309 4.544 4.566 4.659 4.635 100.000 4.310 0.000 695.900 448.100 490.900               0.0940 245.700            
DSCMET_COMPS 2018-01-21 15:35:00 4.309 4.537 4.565 4.660 4.621 100.000 4.309 0.000 692.200 466.000 483.900               0.1400 300.600            
DSCMET_COMPS 2018-01-21 15:30:00 4.329 4.565 4.610 4.675 4.634 100.000 4.334 0.000 712.700 488.600 493.700               0.0230 51.150            
DSCMET_COMPS 2018-01-21 15:25:00 4.309 4.540 4.590 4.672 4.656 100.000 4.310 0.000 679.400 470.900 474.700               0.0910 55.260            
DSCMET_COMPS 2018-01-21 15:20:00 4.309 4.508 4.554 4.678 4.653 100.000 4.311 0.000 713.900 456.500 464.800               0.0770 291.400            
DSCMET_COMPS 2018-01-21 15:15:00 4.299 4.510 4.562 4.688 4.681 100.000 4.304 0.000 706.400 475.900 466.600               0.1660 303.600            
DSCMET_COMPS 2018-01-21 15:10:00 4.368 4.540 4.608 4.697 4.624 100.000 4.375 0.000 713.600 463.700 484.400               0.1010 186.600            
DSCMET_COMPS 2018-01-21 15:05:00 4.302 4.532 4.603 4.706 4.584 100.000 4.304 0.000 710.300 495.000 461.300                 0.000            
DSCMET_COMPS 2018-01-21 15:00:00 4.278 4.503 4.544 4.708 4.639 100.000 4.280 0.000 713.000 459.800 479.900               0.1830 339.100            
DSCMET_COMPS 2018-01-21 14:55:00 4.241 4.476 4.505 4.699 4.710 100.000 4.241 0.000 718.400 461.000 478.600               0.1430 326.200            
DSCMET_COMPS 2018-01-21 14:50:00 4.265 4.483 4.547 4.684 4.688 100.000 4.268 0.000 716.700 452.800 453.100               0.1280 266.800            
DSCMET_COMPS 2018-01-21 14:45:00 4.241 4.474 4.538 4.674 4.672 100.000 4.241 0.000 709.300 451.700 457.700               0.0690 88.900            
DSCMET_COMPS 2018-01-21 14:40:00 4.207 4.455 4.519 4.665 4.627 100.000 4.208 0.000 698.500 450.000 458.700               0.0650 297.400            
DSCMET_COMPS 2018-01-21 14:35:00 4.215 4.435 4.495 4.660 4.610 100.000 4.222 0.000 680.300 448.500 459.400               0.0630 41.810            
DSCMET_COMPS 2018-01-21 14:30:00 4.156 4.385 4.438 4.646 4.647 100.000 4.158 0.000 676.300 450.200 441.700               0.0520 284.100            
DSCMET_COMPS 2018-01-21 14:25:00 4.085 4.335 4.386 4.634 4.652 100.000 4.085 0.000 693.100 444.500 453.500               0.0850 292.200            
DSCMET_COMPS 2018-01-21 14:20:00 4.037 4.313 4.401 4.611 4.644 100.000 4.039 0.000 675.100 441.800 465.600               0.0420 270.300            
DSCMET_COMPS 2018-01-21 14:15:00 4.061 4.354 4.431 4.572 4.637 100.000 4.065 0.000 693.500 442.800 460.700               0.0410 269.900            
DSCMET_COMPS 2018-01-21 14:10:00 3.978 4.275 4.390 4.530 4.549 100.000 3.980 0.000 668.600 437.400 474.500               0.0070 305.800            
DSCMET_COMPS 2018-01-21 14:05:00 3.919 4.198 4.351 4.486 4.535 100.000 3.918 0.000 683.300 443.100 467.400               0.0520 298.900            
DSCMET_COMPS 2018-01-21 14:00:00 3.924 4.140 4.304 4.437 4.484 100.000 3.929 0.000 699.500 441.900 458.000                 0.000            
DSCMET_COMPS 2018-01-21 13:55:00 3.837 4.058 4.221 4.383 4.423 100.000 3.839 0.000 699.800 456.700 457.600               0.1300 19.150            
DSCMET_COMPS 2018-01-21 13:50:00 3.783 4.029 4.195 4.319 4.331 100.000 3.784 0.000 715.800 445.800 464.400               0.1200 299.300            
DSCMET_COMPS 2018-01-21 13:45:00 3.780 4.029 4.158 4.249 4.359 100.000 3.781 0.000 687.900 458.600 447.300               0.1170 274.100            
DSCMET_COMPS 2018-01-21 13:40:00 3.719 3.946 4.071 4.187 4.302 100.000 3.719 -0.000 698.700 454.900 477.500               0.0820 63.660            
DSCMET_COMPS 2018-01-21 13:35:00 3.698 3.931 4.047 4.123 4.181 100.000 3.698 0.000 691.800 434.200 470.400               0.0870 237.600            
DSCMET_COMPS 2018-01-21 13:30:00 3.657 3.882 3.992 4.063 4.142 100.000 3.658 0.000 702.300 463.600 481.500               0.0580 345.900            
DSCMET_COMPS 2018-01-21 13:25:00 3.691 3.889 3.944 4.020 4.098 100.000 3.696 0.000 717.300 453.500 467.800               0.0080 358.600            
DSCMET_COMPS 2018-01-21 13:20:00 3.625 3.914 3.911 3.980 4.002 100.000 3.625 -0.000 694.400 447.800 462.600               0.1170 350.700            
DSCMET_COMPS 2018-01-21 13:15:00 3.563 3.885 3.897 3.925 4.031 100.000 3.563 0.000 703.200 464.300 469.000               0.0660 113.700            
DSCMET_COMPS 2018-01-21 13:10:00 3.522 3.802 3.831 3.870 3.962 100.000 3.524 0.000 699.300 446.500 479.400               0.0750 43.180            
DSCMET_COMPS 2018-01-21 13:05:00 3.449 3.755 3.788 3.827 3.888 100.000 3.450 0.000 718.000 465.800 470.200               0.0100 67.680            
DSCMET_COMPS 2018-01-21 13:00:00 3.361 3.731 3.756 3.777 3.871 100.000 3.358 0.000 713.800 472.900 475.500               0.0380 57.580            
DSCMET_COMPS 2018-01-21 12:55:00 3.410 3.662 3.695 3.724 3.812 100.000 3.415 0.000 693.700 474.700 467.700                 0.000            
DSCMET_COMPS 2018-01-21 12:50:00 3.311 3.600 3.636 3.684 3.749 100.000 3.312 0.000 686.400 454.400 494.600               0.0240 81.200            
DSCMET_COMPS 2018-01-21 12:45:00 3.283 3.523 3.587 3.654 3.710 100.000 3.283 0.000 679.700 437.400 474.700               0.0350 68.950            
DSCMET_COMPS 2018-01-21 12:40:00 3.302 3.500 3.566 3.629 3.626 100.000 3.303 -0.000 724.700 466.600 468.800               0.0700 242.000            
DSCMET_COMPS 2018-01-21 12:35:00 3.294 3.495 3.542 3.592 3.655 100.000 3.295 -0.000 647.300 462.700 470.800               0.1320 359.200            
DSCMET_COMPS 2018-01-21 12:30:00 3.232 3.486 3.499 3.555 3.637 100.000 3.232 0.000 675.500 465.300 484.300               0.0950 331.000            
DSCMET_COMPS 2018-01-21 12:25:00 3.212 3.475 3.481 3.520 3.599 100.000 3.218 0.000 678.300 460.600 452.600               0.0270 63.070            
DSCMET_COMPS 2018-01-21 12:20:00 3.203 3.392 3.433 3.492 3.551 100.000 3.206 0.000 655.700 464.100 452.700               0.1300 10.580            
DSCMET_COMPS 2018-01-21 12:15:00 3.149 3.433 3.415 3.467 3.509 100.000 3.149 0.000 679.400 442.800 447.500               0.0590 250.300            
DSCMET_COMPS 2018-01-21 12:10:00 3.151 3.427 3.399 3.433 3.513 100.000 3.150 0.000 637.800 440.200 443.200               0.0980 157.600            
DSCMET_COMPS 2018-01-21 12:05:00 3.071 3.325 3.339 3.393 3.449 100.000 3.072 0.000 663.100 467.000 439.200               0.0310 90.000            
DSCMET_COMPS 2018-01-21 12:00:00 3.030 3.280 3.309 3.354 3.373 100.000 3.031 0.000 625.700 455.800 441.800               0.0650 20.660            
DSCMET_COMPS 2018-01-21 11:55:00 3.022 3.269 3.288 3.324 3.337 100.000 3.024 0.000 654.200 441.500 420.900               0.1270 332.100            
DSCMET_COMPS 2018-01-21 11:50:00 3.083 3.289 3.264 3.299 3.330 100.000 3.090 0.000 632.500 441.600 453.100                 0.000            
DSCMET_COMPS 2018-01-21 11:45:00 2.944 3.189 3.219 3.272 3.346 100.000 2.944 0.000 638.100 428.700 445.300               0.0850 88.000            
DSCMET_COMPS 2018-01-21 11:40:00 2.914 3.156 3.185 3.238 3.287 100.000 2.915 0.000 648.200 434.300 435.300               0.0860 221.100            
DSCMET_COMPS 2018-01-21 11:35:00 2.945 3.181 3.176 3.198 3.200 100.000 2.948 0.000 651.200 423.600 411.800               0.1830 316.500            
DSCMET_COMPS 2018-01-21 11:30:00 2.890 3.134 3.126 3.154 3.213 100.000 2.892 0.000 658.000 427.900 432.800               0.1680 134.800            
DSCMET_COMPS 2018-01-21 11:25:00 2.874 3.107 3.078 3.106 3.212 100.000 2.874 -0.000 632.800 427.900 446.300               0.0230 300.600            
DSCMET_COMPS 2018-01-21 11:20:00 2.805 3.080 3.051 3.053 3.155 100.000 2.811 0.000 648.400 435.800 445.900               0.0820 81.500            
DSCMET_COMPS 2018-01-21 11:15:00 2.752 2.999 3.006 2.991 3.070 100.000 2.753 0.000 635.200 417.500 448.100               0.0990 124.900            
DSCMET_COMPS 2018-01-21 11:10:00 2.717 2.882 2.953 2.931 2.989 100.000 2.716 0.000 651.900 425.800 418.500               0.1500 35.160            
DSCMET_COMPS 2018-01-21 11:05:00 2.682 2.880 2.880 2.867 3.003 100.000 2.681 0.000 663.600 431.800 445.900               0.1270 259.400            
DSCMET_COMPS 2018-01-21 11:00:00 2.695 2.863 2.814 2.801 2.935 100.000 2.697 0.000 641.700 426.600 449.600               0.0390 43.000            
DSCMET_COMPS 2018-01-21 10:55:00 2.656 2.815 2.778 2.746 2.831 100.000 2.656 0.000 633.100 438.100 452.000               0.1380 120.500            
DSCMET_COMPS 2018-01-21 10:50:00 2.653 2.765 2.724 2.692 2.798 100.000 2.661 0.000 638.800 456.600 450.000               0.1490 153.700            
DSCMET_COMPS 2018-01-21 10:45:00 2.612 2.719 2.662 2.637 2.733 100.000 2.615 0.000 695.900 457.300 439.400                 0.000            
DSCMET_COMPS 2018-01-21 10:40:00 2.555 2.674 2.612 2.594 2.665 100.000 2.556 0.000 674.800 463.300 474.300                 0.000            
DSCMET_COMPS 2018-01-21 10:35:00 2.495 2.645 2.582 2.559 2.603 100.000 2.495 0.000 679.900 457.300 465.200               0.0750 111.400            
DSCMET_COMPS 2018-01-21 10:30:00 2.499 2.628 2.561 2.514 2.603 100.000 2.502 0.000 685.700 456.800 475.300               0.0840 101.400            
DSCMET_COMPS 2018-01-21 10:25:00 2.419 2.592 2.530 2.474 2.563 100.000 2.421 0.000 672.600 445.700 465.300               0.2060 88.400            
DSCMET_COMPS 2018-01-21 10:20:00 2.456 2.547 2.470 2.443 2.500 100.000 2.463 0.000 700.000 445.100 467.900               0.1620 345.700            
DSCMET_COMPS 2018-01-21 10:15:00 2.418 2.536 2.445 2.420 2.454 100.000 2.419 0.000 690.100 477.200 471.300               0.0780 90.800            
DSCMET_COMPS 2018-01-21 10:10:00 2.359 2.495 2.412 2.389 2.472 100.000 2.359 0.000 686.200 483.400 478.900               0.1580 91.800            
DSCMET_COMPS 2018-01-21 10:05:00 2.315 2.433 2.398 2.350 2.489 100.000 2.317 -0.000 708.100 477.900 486.400               0.1630 317.300            
DSCMET_COMPS 2018-01-21 10:00:00 2.292 2.430 2.358 2.316 2.383 100.000 2.293 0.000 707.700 496.000 481.800               0.1080 268.700            
DSCMET_COMPS 2018-01-21 09:55:00 2.312 2.412 2.318 2.284 2.337 100.000 2.317 0.000 676.200 501.000 493.200               0.1680 78.780            
DSCMET_COMPS 2018-01-21 09:50:00 2.254 2.364 2.295 2.258 2.299 100.000 2.258 0.000 711.400 498.500 501.500               0.0390 86.900            
DSCMET_COMPS 2018-01-21 09:45:00 2.214 2.346 2.265 2.231 2.282 100.000 2.214 -0.000 683.900 463.300 468.700               0.0800 323.400            
DSCMET_COMPS 2018-01-21 09:40:00 2.225 2.325 2.242 2.205 2.242 100.000 2.226 0.000 675.400 491.300 483.700               0.0090 236.000            
DSCMET_COMPS 2018-01-21 09:35:00 2.202 2.305 2.217 2.181 2.223 100.000 2.204 0.000 664.900 466.500 482.700                 0.000            
DSCMET_COMPS 2018-01-21 09:30:00 2.214 2.308 2.207 2.154 2.194 100.000 2.216 -0.000 697.600 441.600 470.900               0.1650 264.800            
DSCMET_COMPS 2018-01-21 09:25:00 2.197 2.281 2.174 2.127 2.172 100.000 2.204 0.000 672.900 446.600 468.200               0.1700 120.100            
DSCMET_COMPS 2018-01-21 09:20:00 2.138 2.242 2.139 2.101 2.149 100.000 2.138 -0.000 650.500 453.200 458.500               0.0820 113.300            
DSCMET_COMPS 2018-01-21 09:15:00 2.084 2.209 2.111 2.076 2.123 100.000 2.083 0.000 671.500 439.100 438.400               0.1200 287.900            
DSCMET_COMPS 2018-01-21 09:10:00 2.108 2.192 2.088 2.053 2.092 100.000 2.111 0.000 642.600 446.400 454.400               0.1200 52.050            
DSCMET_COMPS 2018-01-21 09:05:00 2.049 2.156 2.065 2.034 2.064 100.000 2.049 0.000 660.800 434.300 457.400               0.1560 160.700            
DSCMET_COMPS 2018-01-21 09:00:00 2.063 2.148 2.045 2.012 2.044 100.000 2.069 0.000 651.200 445.200 462.800               0.1580 286.500            
DSCMET_COMPS 2018-01-21 08:55:00 2.030 2.116 2.024 1.993 2.017 100.000 2.033 0.000 660.900 420.000 440.700               0.1100 119.400            
DSCMET_COMPS 2018-01-21 08:50:00 1.972 2.114 2.003 1.971 2.009 100.000 1.972 0.000 668.500 440.500 451.900               0.1560 118.100            
DSCMET_COMPS 2018-01-21 08:45:00 1.980 2.071 1.982 1.952 1.989 100.000 1.983 -0.000 654.700 456.000 448.500               0.0950 344.600            
DSCMET_COMPS 2018-01-21 08:40:00 1.944 2.057 1.955 1.929 1.982 100.000 1.944 0.000 666.500 433.300 442.400               0.0970 128.600            
DSCMET_COMPS 2018-01-21 08:35:00 1.987 2.038 1.929 1.914 1.952 100.000 1.992 0.000 668.200 423.700 460.500               0.1770 57.140            
DSCMET_COMPS 2018-01-21 08:30:00 1.951 2.031 1.917 1.896 1.928 100.000 1.951 0.000 667.200 430.500 464.800                 0.000            
DSCMET_COMPS 2018-01-21 08:25:00 1.886 2.007 1.896 1.881 1.898 100.000 1.886 -0.000 678.400 408.000 442.800               0.1520 332.500            
DSCMET_COMPS 2018-01-21 08:20:00 1.894 1.994 1.883 1.870 1.888 100.000 1.896 0.000 676.600 414.500 441.900               0.1030 234.600            
DSCMET_COMPS 2018-01-21 08:15:00 1.877 1.983 1.873 1.857 1.885 100.000 1.877 0.000 657.900 420.800 444.700               0.1400 36.990            
DSCMET_COMPS 2018-01-21 08:10:00 1.894 2.001 1.879 1.842 1.879 100.000 1.896 0.000 655.200 420.700 443.200               0.1610 237.900            
DSCMET_COMPS 2018-01-21 08:05:00 1.897 1.943 1.839 1.824 1.883 100.000 1.903 0.000 655.500 420.400 459.400               0.1610 98.000            
DSCMET_COMPS 2018-01-21 08:00:00 1.810 1.947 1.817 1.819 1.830 100.000 1.810 0.000 643.800 403.900 426.400               0.1720 352.100            
DSCMET_COMPS 2018-01-21 07:55:00 1.862 1.948 1.816 1.815 1.858 100.000 1.862 -0.000 647.400 415.800 407.400               0.1590 318.800            
DSCMET_COMPS 2018-01-21 07:50:00 1.842 1.924 1.816 1.808 1.826 100.000 1.846 -0.000 654.300 408.700 424.700               0.2410 224.200            
DSCMET_COMPS 2018-01-21 07:45:00 1.817 1.941 1.806 1.801 1.805 100.000 1.819 0.000 656.700 417.000 433.400               0.1130 259.400            
DSCMET_COMPS 2018-01-21 07:40:00 1.810 1.942 1.818 1.797 1.830 100.000 1.810 0.000 660.300 413.900 434.800               0.2040 331.600            
DSCMET_COMPS 2018-01-21 07:35:00 1.866 1.935 1.801 1.778 1.805 100.000 1.874 0.000 646.900 418.300 429.300               0.1740 107.900            
DSCMET_COMPS 2018-01-21 07:30:00 1.797 1.899 1.789 1.763 1.810 100.000 1.801 0.000 615.900 418.900 437.900               0.1420 170.100            
DSCMET_COMPS 2018-01-21 07:25:00 1.742 1.884 1.764 1.751 1.787 100.000 1.742 0.000 591.500 403.100 424.200                 0.000            
DSCMET_COMPS 2018-01-21 07:20:00 1.733 1.856 1.745 1.740 1.781 100.000 1.734 0.000 581.100 394.900 408.500               0.0980 48.720            
DSCMET_COMPS 2018-01-21 07:15:00 1.761 1.883 1.748 1.729 1.759 100.000 1.763 0.000 569.800 388.900 409.700               0.1630 237.000            
DSCMET_COMPS 2018-01-21 07:10:00 1.754 1.854 1.735 1.721 1.750 100.000 1.755 0.000 570.700 390.800 418.600               0.1150 346.700            
DSCMET_COMPS 2018-01-21 07:05:00 1.729 1.831 1.722 1.710 1.733 100.000 1.728 0.000 562.600 380.400 421.800               0.1140 127.900            
DSCMET_COMPS 2018-01-21 07:00:00 1.742 1.842 1.710 1.703 1.716 100.000 1.742 0.000 560.400 373.500 404.400               0.2160 352.900            
DSCMET_COMPS 2018-01-21 06:55:00 1.773 1.832 1.727 1.691 1.709 100.100 1.782 -0.007 557.600 370.700 404.500               0.1170 242.000            
DSCMET_COMPS 2018-01-21 06:50:00 1.713 1.837 1.722 1.674 1.691 100.000 1.717 0.000 557.700 365.100 402.400               0.0960 42.640            
DSCMET_COMPS 2018-01-21 06:45:00 1.677 1.825 1.681 1.664 1.677 100.000 1.677 0.000 556.900 362.500 402.100               0.0770 232.200            
DSCMET_COMPS 2018-01-21 06:40:00 1.675 1.809 1.676 1.650 1.663 100.000 1.677 -0.000 552.400 359.800 381.300               0.1690 141.900            
DSCMET_COMPS 2018-01-21 06:35:00 1.689 1.784 1.667 1.649 1.672 100.000 1.692 0.000 552.300 356.700 374.400               0.1580 66.900            
DSCMET_COMPS 2018-01-21 06:30:00 1.681 1.792 1.681 1.648 1.641 100.000 1.682 0.000 554.400 354.400 373.500               0.0970 306.200            
DSCMET_COMPS 2018-01-21 06:25:00 1.682 1.773 1.638 1.647 1.606 100.000 1.682 0.000 556.400 354.200 373.600               0.1340 352.500            
DSCMET_COMPS 2018-01-21 06:20:00 1.744 1.803 1.683 1.639 1.606 100.000 1.751 0.000 559.300 354.300 374.000                 0.000            
DSCMET_COMPS 2018-01-21 06:15:00 1.686 1.796 1.681 1.614 1.643 100.000 1.689 0.000 563.100 354.300 373.800               0.1180 115.900            
DSCMET_COMPS 2018-01-21 06:10:00 1.651 1.746 1.618 1.610 1.624 100.000 1.651 0.000 568.600 354.800 373.000               0.1020 359.600            
DSCMET_COMPS 2018-01-21 06:05:00 1.648 1.781 1.625 1.603 1.648 100.000 1.647 0.000 576.600 355.000 373.300               0.1750 142.300            
DSCMET_COMPS 2018-01-21 06:00:00 1.649 1.752 1.631 1.596 1.586 100.000 1.652 0.000 572.100 355.500 373.900               0.2510 351.500            
DSCMET_COMPS 2018-01-21 05:55:00 1.630 1.762 1.651 1.578 1.576 100.000 1.630 0.000 563.500 356.200 374.000               0.1800 81.700            
DSCMET_COMPS 2018-01-21 05:50:00 1.549 1.724 1.586 1.572 1.559 100.000 1.550 0.000 566.400 356.100 374.000               0.0850 116.600            
DSCMET_COMPS 2018-01-21 05:45:00 1.629 1.718 1.604 1.554 1.584 100.000 1.637 0.000 571.000 356.100 374.000               0.1160 264.300            
DSCMET_COMPS 2018-01-21 05:40:00 1.555 1.724 1.599 1.547 1.545 100.000 1.554 0.000 582.400 355.700 372.700               0.1360 332.200            
DSCMET_COMPS 2018-01-21 05:35:00 1.552 1.701 1.578 1.555 1.532 100.000 1.552 0.000 608.200 355.700 372.900               0.1020 358.100            
DSCMET_COMPS 2018-01-21 05:30:00 1.563 1.703 1.591 1.551 1.514 100.000 1.564 0.000 567.000 356.200 373.300               0.1470 35.000            
DSCMET_COMPS 2018-01-21 05:25:00 1.548 1.696 1.571 1.553 1.531 100.000 1.549 0.000 521.000 357.000 373.700               0.1140 12.850            
DSCMET_COMPS 2018-01-21 05:20:00 1.563 1.694 1.595 1.543 1.505 100.000 1.562 0.000 522.300 357.400 373.600               0.1610 39.070            
DSCMET_COMPS 2018-01-21 05:15:00 1.681 1.735 1.623 1.523 1.528 100.000 1.688 0.000 522.400 356.200 374.000                 0.000            
DSCMET_COMPS 2018-01-21 05:10:00 1.521 1.649 1.558 1.508 1.587 100.000 1.521 0.000 522.300 351.400 374.000               0.1610 88.600            
DSCMET_COMPS 2018-01-21 05:05:00 1.503 1.622 1.528 1.509 1.525 100.000 1.502 -0.000 522.800 351.700 373.300               0.1980 322.800            
DSCMET_COMPS 2018-01-21 05:00:00 1.516 1.639 1.534 1.515 1.520 100.000 1.517 0.000 524.000 351.900 373.300               0.1750 325.800            
DSCMET_COMPS 2018-01-21 04:55:00 1.543 1.678 1.571 1.517 1.506 100.000 1.545 0.000 524.500 351.200 373.600               0.1130 304.000            
DSCMET_COMPS 2018-01-21 04:50:00 1.567 1.716 1.579 1.528 1.503 100.000 1.567 0.000 524.900 350.800 374.000               0.1510 329.600            
DSCMET_COMPS 2018-01-21 04:45:00 1.653 1.724 1.603 1.535 1.505 100.000 1.660 0.000 524.900 350.600 373.900               0.1110 102.900            
DSCMET_COMPS 2018-01-21 04:40:00 1.590 1.689 1.555 1.534 1.524 100.000 1.592 0.000 524.400 350.200 373.400               0.1130 91.000            
DSCMET_COMPS 2018-01-21 04:35:00 1.536 1.647 1.502 1.539 1.505 100.000 1.535 -0.000 524.200 350.700 373.800               0.1270 44.620            
DSCMET_COMPS 2018-01-21 04:30:00 1.533 1.621 1.515 1.549 1.552 100.000 1.534 0.000 525.200 351.100 374.400               0.1620 338.800            
DSCMET_COMPS 2018-01-21 04:25:00 1.545 1.631 1.537 1.562 1.525 100.000 1.545 0.000 525.400 351.500 374.900               0.2180 335.400            
DSCMET_COMPS 2018-01-21 04:20:00 1.531 1.684 1.560 1.581 1.528 100.000 1.530 0.000 526.300 351.600 374.900               0.1040 63.610            
DSCMET_COMPS 2018-01-21 04:15:00 1.599 1.710 1.581 1.606 1.550 100.000 1.604 -0.000 526.200 351.200 375.600               0.1810 326.400            
DSCMET_COMPS 2018-01-21 04:10:00 1.533 1.706 1.633 1.635 1.585 100.000 1.534 0.000 525.500 350.900 376.300                 0.000            
DSCMET_COMPS 2018-01-21 04:05:00 1.591 1.732 1.608 1.682 1.579 100.000 1.590 0.000 527.000 351.500 374.400               0.1800 36.760            
DSCMET_COMPS 2018-01-21 04:00:00 1.626 1.793 1.678 1.729 1.642 100.000 1.627 0.000 527.600 352.000 373.000               0.2470 309.500            
DSCMET_COMPS 2018-01-21 03:55:00 1.730 1.898 1.783 1.768 1.656 100.000 1.729 0.000 528.700 352.100 373.300               0.1730 322.600            
DSCMET_COMPS 2018-01-21 03:50:00 1.806 1.962 1.830 1.803 1.700 100.000 1.804 0.000 529.200 352.200 373.200               0.1180 101.200            
DSCMET_COMPS 2018-01-21 03:45:00 1.862 1.921 1.830 1.822 1.811 100.000 1.867 -0.000 530.300 352.600 372.900               0.1480 54.020            
DSCMET_COMPS 2018-01-21 03:40:00 1.814 1.955 1.829 1.842 1.815 100.000 1.815 0.000 530.500 353.300 373.600               0.1370 55.910            
DSCMET_COMPS 2018-01-21 03:35:00 1.822 1.972 1.856 1.863 1.816 100.000 1.820 0.000 530.800 353.800 374.300               0.0970 76.210            
DSCMET_COMPS 2018-01-21 03:30:00 1.880 1.987 1.855 1.890 1.841 100.000 1.881 0.000 531.100 353.600 374.500               0.0890 304.400            
DSCMET_COMPS 2018-01-21 03:25:00 1.863 1.974 1.870 1.927 1.830 100.000 1.864 0.000 532.900 353.900 373.800               0.1560 339.400            
DSCMET_COMPS 2018-01-21 03:20:00 1.933 2.024 1.983 1.941 1.843 100.000 1.930 0.000 534.200 354.300 373.400               0.1620 337.300            
DSCMET_COMPS 2018-01-21 03:15:00 2.081 2.126 1.999 1.963 1.861 100.000 2.085 0.000 535.600 353.000 372.100               0.0770 62.100            
DSCMET_COMPS 2018-01-21 03:10:00 2.086 2.119 2.002 1.974 1.914 100.000 2.090 0.000 537.100 353.400 372.300               0.0660 95.100            
DSCMET_COMPS 2018-01-21 03:05:00 2.076 2.147 2.006 1.990 1.954 100.000 2.076 0.000 539.600 354.000 370.500                 0.000            
DSCMET_COMPS 2018-01-21 03:00:00 2.073 2.147 2.005 2.003 1.996 100.000 2.072 0.000 538.900 352.600 370.900               0.2130 114.500            
DSCMET_COMPS 2018-01-21 02:55:00 2.111 2.197 2.073 2.008 1.969 100.000 2.112 0.000 540.300 349.400 370.700               0.1140 96.400            
DSCMET_COMPS 2018-01-21 02:50:00 2.128 2.208 2.059 2.003 2.019 100.000 2.128 0.000 536.900 349.500 371.200               0.1430 94.300            
DSCMET_COMPS 2018-01-21 02:45:00 2.046 2.167 2.025 2.000 2.032 100.000 2.045 0.000 534.900 350.400 371.400               0.1250 75.810            
DSCMET_COMPS 2018-01-21 02:40:00 2.114 2.131 2.014 1.997 2.007 100.000 2.120 -0.000 535.800 351.900 372.600               0.0860 76.390            
DSCMET_COMPS 2018-01-21 02:35:00 2.084 2.152 2.037 2.010 1.962 100.000 2.085 0.000 539.100 353.700 373.700               0.0800 95.200            
DSCMET_COMPS 2018-01-21 02:30:00 2.090 2.166 2.052 2.013 1.991 100.000 2.088 0.000 542.000 351.000 373.100               0.1430 92.900            
DSCMET_COMPS 2018-01-21 02:25:00 2.058 2.134 2.027 2.019 2.013 100.000 2.059 0.000 545.700 347.100 373.900               0.1110 73.130            
DSCMET_COMPS 2018-01-21 02:20:00 2.061 2.133 2.007 2.035 1.996 100.000 2.061 -0.000 543.900 348.200 375.200               0.1460 330.500            
DSCMET_COMPS 2018-01-21 02:15:00 2.074 2.140 2.039 2.032 1.967 100.000 2.071 -0.000 538.700 349.000 375.200               0.1520 30.870            
DSCMET_COMPS 2018-01-21 02:10:00 2.035 2.132 2.053 2.034 1.972 100.000 2.036 0.000 539.000 349.700 375.300               0.1380 72.680            
DSCMET_COMPS 2018-01-21 02:05:00 2.082 2.154 2.027 2.046 1.972 100.000 2.088 0.000 539.600 349.900 378.900               0.0910 62.890            
DSCMET_COMPS 2018-01-21 02:00:00 1.996 2.112 2.002 2.073 1.999 100.000 1.996 0.000 542.400 349.300 382.800                 0.000            
DSCMET_COMPS 2018-01-21 01:55:00 2.050 2.109 2.035 2.107 1.975 100.000 2.048 0.000 544.800 349.900 380.800                 0.000            
DSCMET_COMPS 2018-01-21 01:50:00 2.059 2.164 2.110 2.127 2.049 100.000 2.060 0.000 547.700 350.700 368.600               0.1030 315.100            
DSCMET_COMPS 2018-01-21 01:45:00 2.144 2.198 2.159 2.132 2.122 100.000 2.143 0.000 551.600 348.800 367.500               0.0680 70.570            
DSCMET_COMPS 2018-01-21 01:40:00 2.151 2.298 2.190 2.118 2.137 100.000 2.150 0.000 553.400 348.500 365.800               0.0440 67.250            
DSCMET_COMPS 2018-01-21 01:35:00 2.141 2.275 2.162 2.138 2.068 100.000 2.141 -0.000 557.600 347.700 365.200               0.0630 83.500            
DSCMET_COMPS 2018-01-21 01:30:00 2.188 2.237 2.147 2.152 2.127 100.000 2.193 0.000 562.400 346.800 364.800               0.0740 71.440            
DSCMET_COMPS 2018-01-21 01:25:00 2.178 2.229 2.139 2.163 2.153 100.000 2.181 0.000 570.300 347.600 365.100               0.0540 64.930            
DSCMET_COMPS 2018-01-21 01:20:00 2.147 2.245 2.127 2.168 2.162 100.000 2.146 0.000 570.500 348.300 364.400               0.0750 58.130            
DSCMET_COMPS 2018-01-21 01:15:00 2.180 2.259 2.159 2.182 2.142 100.000 2.179 0.000 562.300 348.800 365.200               0.1450 47.520            
DSCMET_COMPS 2018-01-21 01:10:00 2.225 2.323 2.186 2.192 2.136 100.000 2.224 0.000 574.800 348.800 365.800               0.0980 73.560            
DSCMET_COMPS 2018-01-21 01:05:00 2.208 2.297 2.178 2.206 2.160 100.000 2.207 -0.000 600.200 349.200 366.600               0.0740 252.600            
DSCMET_COMPS 2018-01-21 01:00:00 2.198 2.263 2.175 2.219 2.163 100.000 2.196 0.000 580.800 350.100 364.800               0.1910 316.800            
DSCMET_COMPS 2018-01-21 00:55:00 2.263 2.298 2.190 2.224 2.191 100.000 2.268 0.000 534.500 351.200 365.300               0.1070 306.300            
DSCMET_COMPS 2018-01-21 00:50:00 2.230 2.374 2.236 2.231 2.184 100.000 2.230 0.000 542.300 351.200 365.900                 0.000            
DSCMET_COMPS 2018-01-21 00:45:00 2.208 2.352 2.248 2.233 2.174 100.000 2.206 -0.000 543.500 351.800 366.400               0.0600 100.600            
DSCMET_COMPS 2018-01-21 00:40:00 2.232 2.310 2.208 2.240 2.185 100.000 2.232 0.000 545.600 353.400 366.500               0.0660 328.400            
DSCMET_COMPS 2018-01-21 00:35:00 2.313 2.415 2.303 2.235 2.234 100.000 2.315 -0.000 546.900 356.500 366.400               0.0920 312.600            
DSCMET_COMPS 2018-01-21 00:30:00 2.263 2.394 2.267 2.230 2.229 100.000 2.260 0.000 548.300 357.200 366.200               0.0300 103.300            
DSCMET_COMPS 2018-01-21 00:25:00 2.236 2.352 2.244 2.230 2.207 100.000 2.239 0.000 551.100 349.400 366.300               0.0540 107.600            
DSCMET_COMPS 2018-01-21 00:20:00 2.225 2.322 2.213 2.230 2.227 100.000 2.229 0.000 555.700 350.000 364.400               0.0680 68.870            
DSCMET_COMPS 2018-01-21 00:15:00 2.208 2.332 2.195 2.237 2.221 100.000 2.206 -0.000 555.800 349.600 364.300               0.0620 66.040            
DSCMET_COMPS 2018-01-21 00:10:00 2.227 2.329 2.241 2.246 2.226 100.000 2.225 0.000 555.300 354.800 363.400               0.1710 303.400            
DSCMET_COMPS 2018-01-21 00:05:00 2.253 2.376 2.270 2.232 2.258 100.000 2.254 0.000 558.400 365.400 364.100               0.0220 295.100            
DSCMET_COMPS 2018-01-21 00:00:00 2.209 2.327 2.228 2.231 2.255 100.000 2.207 0.000 556.000 364.700 364.300               0.1050 315.300            
DSCMET_COMPS 2018-01-20 23:55:00 2.206 2.301 2.217 2.229 2.247 100.000 2.204 0.000 556.900 364.400 363.100               0.1230 56.880            
DSCMET_COMPS 2018-01-20 23:50:00 2.264 2.277 2.196 2.230 2.255 100.000 2.268 0.000 556.300 365.600 363.600               0.2010 316.500            
DSCMET_COMPS 2018-01-20 23:45:00 2.206 2.322 2.259 2.222 2.249 100.000 2.205 0.000 548.700 364.500 364.100                 0.000            
DSCMET_COMPS 2018-01-20 23:40:00 2.206 2.329 2.256 2.209 2.228 100.000 2.206 0.000 548.000 365.200 363.900               0.0620 53.800            
DSCMET_COMPS 2018-01-20 23:35:00 2.216 2.305 2.232 2.196 2.191 100.000 2.217 -0.000 547.000 365.600 363.700               0.0360 306.200            
DSCMET_COMPS 2018-01-20 23:30:00 2.214 2.308 2.197 2.192 2.168 100.000 2.212 -0.000 547.600 365.200 363.800               0.0500 75.940            
DSCMET_COMPS 2018-01-20 23:25:00 2.199 2.293 2.154 2.193 2.165 100.000 2.194 0.000 546.700 366.200 364.600               0.0240 243.900            
DSCMET_COMPS 2018-01-20 23:20:00 2.188 2.255 2.138 2.210 2.159 100.000 2.192 0.000 547.900 366.700 365.300               0.1780 311.500            
DSCMET_COMPS 2018-01-20 23:15:00 2.236 2.315 2.227 2.230 2.134 100.000 2.236 0.000 549.100 368.000 366.200               0.1110 310.300            
DSCMET_COMPS 2018-01-20 23:10:00 2.182 2.286 2.181 2.273 2.149 100.000 2.181 0.000 550.700 366.200 368.100               0.0810 87.000            
DSCMET_COMPS 2018-01-20 23:05:00 2.189 2.293 2.158 2.322 2.181 100.000 2.186 -0.000 550.300 365.700 366.500               0.1450 302.500            
DSCMET_COMPS 2018-01-20 23:00:00 2.277 2.400 2.200 2.374 2.221 100.000 2.277 0.000 551.900 366.300 369.200               0.1440 18.720            
DSCMET_COMPS 2018-01-20 22:55:00 2.331 2.407 2.248 2.437 2.228 100.000 2.328 0.000 567.400 367.300 367.900               0.1620 321.800            
DSCMET_COMPS 2018-01-20 22:50:00 2.398 2.518 2.398 2.501 2.280 100.000 2.398 0.000 571.300 368.700 366.500               0.1800 304.200            
DSCMET_COMPS 2018-01-20 22:45:00 2.546 2.614 2.540 2.552 2.309 100.000 2.551 0.000 557.800 370.300 366.900               0.1670 232.800            
DSCMET_COMPS 2018-01-20 22:40:00 2.633 2.714 2.585 2.583 2.399 100.000 2.631 0.000 564.600 374.600 367.300                 0.000            
DSCMET_COMPS 2018-01-20 22:35:00 2.572 2.715 2.579 2.581 2.599 100.000 2.572 0.000 574.800 366.800 368.900               0.1770 299.900            
DSCMET_COMPS 2018-01-20 22:30:00 2.603 2.694 2.597 2.570 2.573 100.000 2.605 0.000 588.000 355.600 363.200               0.0440 62.080            
DSCMET_COMPS 2018-01-20 22:25:00 2.579 2.689 2.575 2.576 2.575 100.000 2.580 0.000 560.400 355.500 363.200               0.0090 262.100            
DSCMET_COMPS 2018-01-20 22:20:00 2.581 2.655 2.543 2.589 2.552 100.000 2.580 0.000 538.100 354.100 360.800               0.0240 301.200            
DSCMET_COMPS 2018-01-20 22:15:00 2.593 2.643 2.552 2.606 2.544 100.000 2.600 -0.000 539.400 354.500 359.100               0.0630 338.400            
DSCMET_COMPS 2018-01-20 22:10:00 2.562 2.662 2.567 2.630 2.568 100.000 2.562 0.000 541.000 355.900 358.800               0.0620 59.770            
DSCMET_COMPS 2018-01-20 22:05:00 2.584 2.648 2.542 2.665 2.570 100.000 2.584 0.000 541.200 353.800 359.600               0.1090 307.900            
DSCMET_COMPS 2018-01-20 22:00:00 2.680 2.716 2.597 2.716 2.551 100.000 2.681 0.000 542.400 353.300 359.900               0.1150 307.000            
DSCMET_COMPS 2018-01-20 21:55:00 2.699 2.791 2.669 2.766 2.591 100.000 2.698 0.000 542.900 353.800 360.600               0.0480 353.100            
DSCMET_COMPS 2018-01-20 21:50:00 2.716 2.860 2.784 2.804 2.717 100.000 2.717 0.000 541.900 354.600 361.400               0.1290 87.200            
DSCMET_COMPS 2018-01-20 21:45:00 2.852 2.959 2.858 2.818 2.735 100.000 2.858 -0.000 545.800 355.000 362.100               0.0550 80.100            
DSCMET_COMPS 2018-01-20 21:40:00 2.826 2.924 2.834 2.852 2.722 100.000 2.826 0.000 555.400 354.800 362.500               0.0760 79.250            
DSCMET_COMPS 2018-01-20 21:35:00 2.913 3.018 2.936 2.886 2.739 100.000 2.914 0.000 561.700 355.000 362.800                 0.000            
DSCMET_COMPS 2018-01-20 21:30:00 2.935 3.086 2.938 2.913 2.749 100.000 2.935 0.000 546.900 354.800 363.100               0.0690 167.900            
DSCMET_COMPS 2018-01-20 21:25:00 2.947 3.053 2.928 2.928 2.857 100.000 2.950 0.000 546.700 354.700 363.800               0.1670 124.500            
DSCMET_COMPS 2018-01-20 21:20:00 2.930 3.075 2.946 2.943 2.822 100.000 2.929 0.000 548.400 355.400 364.700               0.1340 115.000            
DSCMET_COMPS 2018-01-20 21:15:00 2.935 3.071 2.976 2.970 2.815 100.000 2.934 0.000 548.300 355.700 366.200               0.1690 121.200            
DSCMET_COMPS 2018-01-20 21:10:00 3.009 3.118 3.007 2.988 2.923 100.000 3.016 0.000 552.200 359.800 375.300               0.0430 105.300            
DSCMET_COMPS 2018-01-20 21:05:00 3.014 3.108 2.995 3.000 2.964 100.000 3.016 0.000 555.700 365.200 384.200               0.0500 121.300            
DSCMET_COMPS 2018-01-20 21:00:00 3.001 3.091 2.978 3.009 2.968 100.000 2.999 0.000 566.500 364.400 380.900               0.0480 79.480            
DSCMET_COMPS 2018-01-20 20:55:00 3.011 3.098 3.012 3.013 2.989 100.000 3.011 0.000 575.300 364.700 382.000               0.1110 339.400            
DSCMET_COMPS 2018-01-20 20:50:00 3.033 3.145 3.046 3.011 2.996 100.000 3.035 0.000 551.600 363.700 383.200               0.0820 40.690            
DSCMET_COMPS 2018-01-20 20:45:00 3.003 3.137 3.022 3.017 2.992 100.000 3.002 0.000 554.300 364.100 384.100               0.0620 201.000            
DSCMET_COMPS 2018-01-20 20:40:00 3.010 3.100 3.011 3.019 2.989 100.000 3.010 0.000 554.700 363.200 382.800               0.0340 240.000            
DSCMET_COMPS 2018-01-20 20:35:00 3.069 3.123 3.020 3.023 3.009 100.000 3.075 0.000 556.600 364.200 382.100               0.0940 299.300            
DSCMET_COMPS 2018-01-20 20:30:00 3.017 3.145 3.036 3.020 3.053 100.000 3.016 0.000 555.100 363.200 381.900                 0.000            
DSCMET_COMPS 2018-01-20 20:25:00 3.008 3.145 3.027 3.023 3.001 100.000 3.007 0.000 552.400 362.800 380.900               0.0370 169.500            
DSCMET_COMPS 2018-01-20 20:20:00 3.026 3.139 3.013 3.023 2.997 100.000 3.029 0.000 555.400 362.500 381.600               0.0090 300.000            
DSCMET_COMPS 2018-01-20 20:15:00 3.015 3.114 3.036 3.015 3.003 100.000 3.015 0.000 557.000 362.000 380.500               0.1130 251.100            
DSCMET_COMPS 2018-01-20 20:10:00 2.984 3.089 3.019 2.997 3.054 100.000 2.982 0.000 567.300 362.600 377.500               0.0640 175.900            
DSCMET_COMPS 2018-01-20 20:05:00 2.964 3.047 2.996 2.976 3.088 100.000 2.968 0.000 582.000 361.000 377.300               0.0290 97.700            
DSCMET_COMPS 2018-01-20 20:00:00 2.972 3.047 2.966 2.975 2.996 100.000 2.976 -0.000 590.300 360.200 378.200               0.0600 300.000            
DSCMET_COMPS 2018-01-20 19:55:00 2.981 3.065 2.963 2.986 2.981 100.000 2.980 0.000 551.800 360.700 378.800               0.0210 82.100            
DSCMET_COMPS 2018-01-20 19:50:00 3.013 3.086 2.962 2.991 2.987 100.000 3.013 0.000 550.800 361.600 378.300               0.0430 298.700            
DSCMET_COMPS 2018-01-20 19:45:00 3.023 3.123 2.995 2.997 2.970 100.000 3.024 0.000 551.000 362.100 379.800               0.0790 301.200            
DSCMET_COMPS 2018-01-20 19:40:00 3.021 3.141 3.023 2.994 3.006 100.000 3.021 0.000 552.100 361.900 382.100               0.0680 238.100            
DSCMET_COMPS 2018-01-20 19:35:00 3.014 3.112 3.001 2.991 3.020 100.000 3.016 0.000 553.800 363.000 381.300               0.1040 223.300            
DSCMET_COMPS 2018-01-20 19:30:00 3.004 3.090 2.977 2.986 3.013 100.000 3.009 0.000 566.900 362.500 381.900               0.0220 274.700            
DSCMET_COMPS 2018-01-20 19:25:00 2.957 3.074 2.969 2.982 3.018 100.000 2.959 0.000 582.700 361.900 381.900                 0.000            
DSCMET_COMPS 2018-01-20 19:20:00 3.013 3.102 2.977 2.988 2.962 100.000 3.014 0.000 589.700 361.800 386.900                 0.000            
DSCMET_COMPS 2018-01-20 19:15:00 3.006 3.137 2.989 2.995 2.941 100.000 3.006 0.000 578.900 361.200 377.600               0.0580 88.800            
DSCMET_COMPS 2018-01-20 19:10:00 2.992 3.095 2.964 3.015 2.943 100.000 2.994 0.000 596.700 362.100 378.000               0.0750 320.200            
DSCMET_COMPS 2018-01-20 19:05:00 3.011 3.135 3.032 3.026 2.962 100.000 3.012 0.000 605.100 362.400 377.000               0.1520 305.400            
DSCMET_COMPS 2018-01-20 19:00:00 3.021 3.148 3.052 3.029 2.993 100.000 3.022 0.000 562.600 361.100 375.800               0.0790 240.000            
DSCMET_COMPS 2018-01-20 18:55:00 3.020 3.133 3.018 3.039 2.996 100.000 3.019 0.000 569.800 362.300 383.000               0.0920 299.500            
DSCMET_COMPS 2018-01-20 18:50:00 3.086 3.148 3.006 3.061 2.970 100.000 3.093 0.000 578.500 363.600 391.900               0.0210 244.900            
DSCMET_COMPS 2018-01-20 18:45:00 3.094 3.175 3.062 3.080 2.958 100.000 3.096 0.000 588.500 365.100 394.000               0.1460 205.200            
DSCMET_COMPS 2018-01-20 18:40:00 3.125 3.200 3.093 3.099 2.964 100.000 3.126 0.000 588.100 365.700 399.500               0.1810 169.700            
DSCMET_COMPS 2018-01-20 18:35:00 3.098 3.215 3.088 3.101 2.992 100.000 3.096 0.000 562.700 366.500 412.000               0.0780 274.800            
DSCMET_COMPS 2018-01-20 18:30:00 3.060 3.186 3.060 3.119 3.062 100.000 3.062 0.000 568.700 364.400 397.100               0.0430 343.500            
DSCMET_COMPS 2018-01-20 18:25:00 3.126 3.210 3.109 3.124 3.075 100.000 3.127 0.000 578.400 362.600 394.600               0.0520 123.500            
DSCMET_COMPS 2018-01-20 18:20:00 3.043 3.194 3.099 3.129 3.063 100.000 3.044 0.000 598.900 362.800 394.000               0.1630 277.400            
DSCMET_COMPS 2018-01-20 18:15:00 3.123 3.244 3.161 3.136 3.124 100.000 3.125 0.000 587.200 362.200 394.900                 0.000            
DSCMET_COMPS 2018-01-20 18:10:00 3.138 3.249 3.134 3.144 3.036 100.000 3.144 0.000 571.300 362.700 395.300               0.0820 189.600            
DSCMET_COMPS 2018-01-20 18:05:00 3.148 3.267 3.152 3.166 3.034 100.000 3.148 0.000 580.800 363.500 394.500               0.1810 239.100            
DSCMET_COMPS 2018-01-20 18:00:00 3.157 3.289 3.156 3.189 3.073 100.000 3.157 0.000 588.900 363.800 394.800               0.0650 250.500            
DSCMET_COMPS 2018-01-20 17:55:00 3.172 3.282 3.165 3.228 3.104 100.000 3.173 0.000 566.500 363.400 394.600               0.1070 285.600            
DSCMET_COMPS 2018-01-20 17:50:00 3.179 3.285 3.189 3.255 3.114 100.000 3.181 0.000 569.100 361.500 394.500               0.1940 148.200            
DSCMET_COMPS 2018-01-20 17:45:00 3.184 3.329 3.224 3.283 3.148 100.000 3.185 0.000 588.500 361.800 395.900               0.1780 226.500            
DSCMET_COMPS 2018-01-20 17:40:00 3.245 3.312 3.206 3.323 3.157 100.000 3.248 0.000 585.600 361.100 397.100               0.0840 264.000            
DSCMET_COMPS 2018-01-20 17:35:00 3.269 3.345 3.267 3.340 3.221 100.000 3.273 0.000 566.000 358.500 397.200               0.1060 250.300            
DSCMET_COMPS 2018-01-20 17:30:00 3.262 3.375 3.294 3.353 3.237 100.000 3.264 0.000 576.300 357.700 396.100               0.1490 232.900            
DSCMET_COMPS 2018-01-20 17:25:00 3.289 3.427 3.337 3.367 3.286 100.000 3.290 0.000 584.000 353.500 395.400               0.2210 221.500            
DSCMET_COMPS 2018-01-20 17:20:00 3.262 3.402 3.332 3.383 3.262 100.000 3.263 0.000 572.000 354.200 395.600               0.1930 233.300            
DSCMET_COMPS 2018-01-20 17:15:00 3.328 3.441 3.372 3.407 3.306 100.000 3.330 -0.000 565.500 355.300 394.900               0.1830 233.500            
DSCMET_COMPS 2018-01-20 17:10:00 3.318 3.497 3.361 3.460 3.294 100.000 3.320 0.000 571.000 356.200 396.700                 0.000            
DSCMET_COMPS 2018-01-20 17:05:00 3.408 3.548 3.428 3.528 3.315 100.000 3.408 0.000 579.700 356.200 398.500               0.1470 189.600            
DSCMET_COMPS 2018-01-20 17:00:00 3.494 3.599 3.511 3.595 3.431 100.000 3.500 0.000 596.000 357.200 404.500               0.1980 158.500            
DSCMET_COMPS 2018-01-20 16:55:00 3.486 3.682 3.579 3.654 3.550 100.000 3.490 0.000 617.100 354.200 387.800               0.1560 253.900            
DSCMET_COMPS 2018-01-20 16:50:00 3.573 3.708 3.623 3.696 3.563 100.000 3.573 0.000 581.000 352.100 386.400               0.0970 240.800            
DSCMET_COMPS 2018-01-20 16:45:00 3.630 3.760 3.659 3.716 3.548 100.000 3.631 0.000 561.800 353.600 386.100               0.1230 205.200            
DSCMET_COMPS 2018-01-20 16:40:00 3.629 3.763 3.647 3.744 3.658 100.000 3.632 0.000 548.700 351.500 386.200               0.1650 217.300            
DSCMET_COMPS 2018-01-20 16:35:00 3.549 3.731 3.580 3.801 3.629 100.000 3.550 0.000 549.000 349.200 386.200               0.0720 254.400            
DSCMET_COMPS 2018-01-20 16:30:00 3.627 3.768 3.614 3.879 3.594 100.000 3.628 0.000 558.200 346.600 388.700               0.1010 219.300            
DSCMET_COMPS 2018-01-20 16:25:00 3.790 3.792 3.737 3.961 3.631 100.000 3.796 0.000 559.500 346.400 392.700               0.2540 218.600            
DSCMET_COMPS 2018-01-20 16:20:00 3.754 3.967 3.865 4.023 3.756 100.000 3.757 -0.000 568.000 347.400 396.000               0.2180 237.200            
DSCMET_COMPS 2018-01-20 16:15:00 3.881 4.026 3.958 4.077 3.827 100.000 3.880 0.000 563.800 348.200 402.600               0.1760 241.200            
DSCMET_COMPS 2018-01-20 16:10:00 3.953 4.069 3.943 4.127 3.814 100.000 3.955 0.000 543.800 347.600 381.600               0.1750 157.300            
DSCMET_COMPS 2018-01-20 16:05:00 3.988 4.099 4.023 4.191 3.958 100.000 3.990 0.000 548.000 349.400 378.500                 0.000            
DSCMET_COMPS 2018-01-20 16:00:00 3.949 4.089 4.034 4.226 4.079 100.000 3.949 0.000 555.900 352.000 376.800               0.2680 212.000            
DSCMET_COMPS 2018-01-20 15:55:00 3.888 4.035 4.003 4.241 4.152 100.000 3.890 0.000 560.800 358.900 377.000               0.3100 210.500            
DSCMET_COMPS 2018-01-20 15:50:00 3.903 4.016 3.992 4.251 4.171 100.000 3.910 0.000 565.500 366.900 376.200               0.2220 224.700            
DSCMET_COMPS 2018-01-20 15:45:00 3.929 4.082 4.022 4.284 4.081 100.000 3.930 0.000 569.200 365.800 376.500               0.2540 184.100            
DSCMET_COMPS 2018-01-20 15:40:00 4.041 4.214 4.124 4.334 4.126 100.000 4.042 0.000 579.200 362.500 376.600               0.2470 179.200            
DSCMET_COMPS 2018-01-20 15:35:00 4.037 4.169 4.138 4.361 4.242 100.000 4.040 0.000 587.800 362.500 375.200               0.2290 194.900            
DSCMET_COMPS 2018-01-20 15:30:00 4.017 4.175 4.096 4.400 4.271 100.000 4.020 0.000 595.500 363.200 374.400               0.1640 230.300            
DSCMET_COMPS 2018-01-20 15:25:00 4.051 4.300 4.214 4.458 4.157 100.000 4.052 0.000 576.800 364.200 376.300               0.2200 193.600            
DSCMET_COMPS 2018-01-20 15:20:00 4.168 4.329 4.277 4.495 4.233 100.000 4.170 0.000 575.400 365.300 377.200               0.2380 136.600            
DSCMET_COMPS 2018-01-20 15:15:00 4.198 4.403 4.352 4.517 4.296 100.000 4.206 0.000 566.400 374.500 377.500               0.1860 127.800            
DSCMET_COMPS 2018-01-20 15:10:00 4.037 4.289 4.305 4.548 4.324 100.000 4.039 0.000 573.100 382.900 379.000               0.1230 207.600            
DSCMET_COMPS 2018-01-20 15:05:00 4.037 4.204 4.238 4.538 4.470 100.000 4.038 0.000 581.200 384.600 396.400               0.0090 240.000            
DSCMET_COMPS 2018-01-20 15:00:00 4.003 4.148 4.149 4.505 4.407 100.000 4.005 0.000 593.700 386.300 399.700                 0.000            
DSCMET_COMPS 2018-01-20 14:55:00 3.934 4.133 4.134 4.449 4.471 100.000 3.936 0.000 604.600 389.200 400.500               0.0120 252.200            
DSCMET_COMPS 2018-01-20 14:50:00 3.891 4.069 4.096 4.381 4.522 100.000 3.891 0.000 634.300 381.100 402.900               0.0150 300.000            
DSCMET_COMPS 2018-01-20 14:45:00 3.820 3.989 3.984 4.316 4.468 100.000 3.823 0.000 632.700 381.500 404.200               0.0510 283.100            
DSCMET_COMPS 2018-01-20 14:40:00 3.785 3.887 3.951 4.257 4.304 100.000 3.789 0.000 610.000 382.400 407.000               0.0870 300.600            
DSCMET_COMPS 2018-01-20 14:35:00 3.813 3.965 4.006 4.216 4.206 100.000 3.814 0.000 576.800 383.600 407.400               0.0850 328.000            
DSCMET_COMPS 2018-01-20 14:30:00 3.803 3.979 3.962 4.176 4.143 100.000 3.804 0.000 586.700 385.100 405.800               0.0860 262.100            
DSCMET_COMPS 2018-01-20 14:25:00 3.851 3.987 3.976 4.169 4.031 100.000 3.852 0.000 595.900 376.400 406.700               0.1780 300.300            
DSCMET_COMPS 2018-01-20 14:20:00 3.812 3.967 3.925 4.187 4.011 100.000 3.814 0.000 635.300 379.100 410.700               0.1520 282.500            
DSCMET_COMPS 2018-01-20 14:15:00 3.757 3.943 3.962 4.203 4.071 100.000 3.757 -0.000 645.200 376.300 412.700               0.2010 309.900            
DSCMET_COMPS 2018-01-20 14:10:00 3.830 3.923 3.935 4.194 4.154 100.000 3.836 0.000 594.500 378.700 405.500               0.1680 296.800            
DSCMET_COMPS 2018-01-20 14:05:00 3.863 3.923 3.858 4.150 4.156 100.000 3.868 0.000 580.000 377.400 408.000               0.1870 309.400            
DSCMET_COMPS 2018-01-20 14:00:00 3.797 3.898 3.842 4.144 4.066 100.000 3.798 0.000 584.100 392.300 409.300               0.1820 303.800            
DSCMET_COMPS 2018-01-20 13:55:00 3.766 3.947 3.869 4.165 4.060 100.000 3.767 0.000 592.800 397.200 410.300               0.2090 304.100            
DSCMET_COMPS 2018-01-20 13:50:00 3.841 4.028 3.950 4.208 4.036 100.000 3.843 0.000 602.500 402.200 410.100                 0.000            
DSCMET_COMPS 2018-01-20 13:45:00 3.849 3.945 3.882 4.149 4.299 100.000 3.851 0.000 629.400 410.300 409.200               0.1120 284.400            
DSCMET_COMPS 2018-01-20 13:40:00 3.787 3.859 3.861 4.097 4.085 100.000 3.788 0.000 590.100 390.800 415.400               0.2170 309.200            
DSCMET_COMPS 2018-01-20 13:35:00 3.757 3.885 3.840 4.100 3.965 100.000 3.757 -0.000 579.800 391.700 403.300               0.2190 325.900            
DSCMET_COMPS 2018-01-20 13:30:00 3.745 3.863 3.817 4.087 4.105 100.000 3.753 0.000 610.000 392.500 395.500               0.0630 297.600            
DSCMET_COMPS 2018-01-20 13:25:00 3.608 3.794 3.776 4.025 4.033 100.000 3.611 0.000 606.400 396.300 392.800               0.1470 299.300            
DSCMET_COMPS 2018-01-20 13:20:00 3.540 3.747 3.746 3.931 4.043 100.000 3.539 0.000 583.000 393.400 397.000               0.0480 284.200            
DSCMET_COMPS 2018-01-20 13:15:00 3.482 3.700 3.626 3.843 3.908 100.000 3.481 0.000 587.200 396.000 402.000               0.0310 265.200            
DSCMET_COMPS 2018-01-20 13:10:00 3.457 3.624 3.560 3.796 3.797 100.000 3.460 0.000 583.900 403.600 405.000               0.0420 52.930            
DSCMET_COMPS 2018-01-20 13:05:00 3.404 3.546 3.497 3.753 3.803 100.000 3.404 0.000 607.500 396.500 402.600               0.1230 314.100            
DSCMET_COMPS 2018-01-20 13:00:00 3.321 3.499 3.457 3.697 3.791 100.000 3.322 0.000 599.100 389.400 402.200               0.0430 282.200            
DSCMET_COMPS 2018-01-20 12:55:00 3.352 3.444 3.458 3.619 3.647 100.000 3.358 0.000 601.300 389.800 409.000               0.0880 300.200            
DSCMET_COMPS 2018-01-20 12:50:00 3.324 3.422 3.446 3.562 3.551 100.000 3.326 0.000 610.700 393.600 406.500               0.1350 298.400            
DSCMET_COMPS 2018-01-20 12:45:00 3.248 3.359 3.367 3.535 3.527 100.000 3.246 0.000 625.200 390.600 388.300                 0.000            
DSCMET_COMPS 2018-01-20 12:40:00 3.233 3.367 3.327 3.519 3.454 100.000 3.233 0.000 616.900 392.500 386.800               0.1650 320.700            
DSCMET_COMPS 2018-01-20 12:35:00 3.299 3.356 3.291 3.493 3.573 100.000 3.300 0.000 620.000 388.400 382.000               0.1780 313.300            
DSCMET_COMPS 2018-01-20 12:30:00 3.286 3.401 3.323 3.461 3.445 100.000 3.285 0.000 597.200 386.200 394.900               0.1720 318.700            
DSCMET_COMPS 2018-01-20 12:25:00 3.278 3.436 3.368 3.449 3.371 100.000 3.279 0.000 609.100 388.700 408.100               0.1550 307.700            
DSCMET_COMPS 2018-01-20 12:20:00 3.293 3.363 3.326 3.422 3.442 100.000 3.301 0.000 627.000 389.100 406.400               0.1590 303.400            
DSCMET_COMPS 2018-01-20 12:15:00 3.166 3.299 3.289 3.397 3.451 100.000 3.166 0.000 604.600 390.500 409.200               0.0620 301.100            
DSCMET_COMPS 2018-01-20 12:10:00 3.140 3.230 3.228 3.354 3.300 100.000 3.142 0.000 605.500 389.600 430.100               0.0950 316.800            
DSCMET_COMPS 2018-01-20 12:05:00 3.145 3.202 3.142 3.328 3.262 100.000 3.146 0.000 629.200 387.600 422.500               0.1810 311.900            
DSCMET_COMPS 2018-01-20 12:00:00 3.083 3.195 3.116 3.286 3.215 100.000 3.085 0.000 627.100 398.300 417.900               0.2590 319.700            
DSCMET_COMPS 2018-01-20 11:55:00 3.017 3.183 3.118 3.226 3.286 100.000 3.017 0.000 598.000 405.500 415.200               0.1210 302.200            
DSCMET_COMPS 2018-01-20 11:50:00 3.067 3.129 3.039 3.172 3.145 100.000 3.076 0.000 635.800 407.600 418.000               0.1090 295.700            
DSCMET_COMPS 2018-01-20 11:45:00 2.964 3.113 3.027 3.157 3.050 100.000 2.967 0.000 606.000 409.700 420.600               0.2840 306.900            
DSCMET_COMPS 2018-01-20 11:40:00 2.891 3.040 3.014 3.113 3.070 100.000 2.892 0.000 597.700 412.900 427.800                 0.000            
DSCMET_COMPS 2018-01-20 11:35:00 2.857 3.023 2.962 3.052 2.988 100.000 2.859 0.000 629.600 416.900 422.700               0.1770 311.400            
DSCMET_COMPS 2018-01-20 11:30:00 2.865 2.966 2.870 3.028 2.920 100.000 2.865 0.000 608.500 417.100 429.400               0.2060 301.600            
DSCMET_COMPS 2018-01-20 11:25:00 2.853 2.975 2.876 3.045 2.858 100.000 2.851 0.000 652.400 416.200 439.100               0.4530 322.600            
DSCMET_COMPS 2018-01-20 11:20:00 2.988 3.070 2.947 3.076 2.823 100.000 2.994 0.000 637.200 404.300 414.300               0.2760 307.600            
DSCMET_COMPS 2018-01-20 11:15:00 2.904 3.012 2.926 3.081 2.902 100.000 2.906 0.000 636.200 422.700 420.800               0.3780 307.100            
DSCMET_COMPS 2018-01-20 11:10:00 2.864 2.987 2.911 3.086 2.966 100.000 2.865 0.000 629.800 423.300 436.800               0.5090 326.900            
DSCMET_COMPS 2018-01-20 11:05:00 2.886 3.006 2.923 3.079 2.928 100.000 2.887 0.000 629.000 412.100 429.100               0.4870 319.900            
DSCMET_COMPS 2018-01-20 11:00:00 2.884 2.973 2.881 3.078 2.932 100.000 2.887 0.000 623.000 406.200 419.300               0.4810 320.100            
DSCMET_COMPS 2018-01-20 10:55:00 2.858 2.983 2.881 3.091 3.005 100.000 2.858 0.000 590.100 402.900 410.200               0.4480 322.900            
DSCMET_COMPS 2018-01-20 10:50:00 2.912 2.990 2.881 3.077 3.079 100.000 2.918 0.000 611.500 394.500 399.800               0.3320 319.900            
DSCMET_COMPS 2018-01-20 10:45:00 2.878 2.970 2.886 3.048 2.995 100.000 2.881 -0.000 606.800 391.700 399.500               0.4360 320.700            
DSCMET_COMPS 2018-01-20 10:40:00 2.797 2.954 2.873 3.007 2.932 100.000 2.799 -0.000 613.300 402.300 420.500               0.3740 317.800            
DSCMET_COMPS 2018-01-20 10:35:00 2.763 2.860 2.780 2.997 2.813 100.000 2.763 0.000 615.900 411.200 421.500                 0.000            
DSCMET_COMPS 2018-01-20 10:30:00 2.716 2.784 2.695 2.997 2.912 100.000 2.720 0.000 631.200 403.600 422.300               0.5170 318.300            
DSCMET_COMPS 2018-01-20 10:25:00 2.705 2.808 2.728 2.987 2.949 100.000 2.703 0.000 613.500 396.300 415.200               0.4850 322.300            
DSCMET_COMPS 2018-01-20 10:20:00 2.789 2.918 2.838 2.963 2.736 100.000 2.792 0.000 598.500 393.800 408.100               0.2570 285.800            
DSCMET_COMPS 2018-01-20 10:15:00 2.739 2.866 2.859 2.890 2.837 100.000 2.745 0.000 598.000 393.100 409.400               0.1990 300.800            
DSCMET_COMPS 2018-01-20 10:10:00 2.615 2.762 2.764 2.763 2.801 100.000 2.616 0.000 633.700 389.900 420.300               0.1670 290.000            
DSCMET_COMPS 2018-01-20 10:05:00 2.435 2.642 2.639 2.657 2.753 100.000 2.434 0.000 597.700 388.700 425.700               0.0930 300.400            
DSCMET_COMPS 2018-01-20 10:00:00 2.371 2.571 2.544 2.571 2.596 100.000 2.371 0.000 588.800 399.500 426.600               0.0600 236.800            
DSCMET_COMPS 2018-01-20 09:55:00 2.361 2.512 2.429 2.486 2.505 100.000 2.361 0.000 589.600 399.000 420.700               0.1430 263.300            
DSCMET_COMPS 2018-01-20 09:50:00 2.253 2.449 2.387 2.462 2.374 100.000 2.251 0.000 586.400 409.200 414.000               0.1040 303.700            
DSCMET_COMPS 2018-01-20 09:45:00 2.265 2.400 2.304 2.457 2.339 100.000 2.273 0.000 594.800 409.800 404.100               0.0680 243.400            
DSCMET_COMPS 2018-01-20 09:40:00 2.298 2.409 2.338 2.431 2.252 100.000 2.302 0.000 593.100 396.800 407.000               0.2050 235.700            
DSCMET_COMPS 2018-01-20 09:35:00 2.295 2.393 2.352 2.389 2.346 100.000 2.296 0.000 582.700 399.100 434.000               0.1050 245.900            
DSCMET_COMPS 2018-01-20 09:30:00 2.212 2.342 2.293 2.334 2.406 100.000 2.212 -0.000 592.300 415.800 426.600                 0.000            
DSCMET_COMPS 2018-01-20 09:25:00 2.163 2.307 2.263 2.283 2.251 100.000 2.164 0.000 589.000 402.900 422.000               0.0470 279.800            
DSCMET_COMPS 2018-01-20 09:20:00 2.145 2.227 2.173 2.246 2.149 100.000 2.145 -0.000 586.200 393.700 420.600               0.0510 238.500            
DSCMET_COMPS 2018-01-20 09:15:00 2.154 2.200 2.164 2.220 2.191 100.000 2.156 0.000 585.800 399.900 436.600               0.1110 232.500            
DSCMET_COMPS 2018-01-20 09:10:00 2.122 2.200 2.154 2.205 2.112 100.000 2.128 0.000 600.300 396.900 426.300               0.0600 240.000            
DSCMET_COMPS 2018-01-20 09:05:00 2.036 2.185 2.124 2.187 2.197 100.000 2.038 -0.000 577.900 390.600 411.300               0.0390 278.700            
DSCMET_COMPS 2018-01-20 09:00:00 2.066 2.144 2.077 2.151 2.137 100.000 2.067 0.000 569.800 391.400 429.300               0.0810 231.700            
DSCMET_COMPS 2018-01-20 08:55:00 2.109 2.173 2.116 2.112 2.171 100.000 2.111 0.000 574.700 408.400 430.600               0.1130 238.800            
DSCMET_COMPS 2018-01-20 08:50:00 2.042 2.213 2.116 2.064 2.111 100.000 2.042 0.000 613.800 402.400 420.700               0.1300 238.800            
DSCMET_COMPS 2018-01-20 08:45:00 2.113 2.169 2.059 2.010 2.096 100.000 2.119 0.000 592.100 402.500 409.800               0.1510 242.000            
DSCMET_COMPS 2018-01-20 08:40:00 2.019 2.127 2.000 1.954 2.007 100.000 2.021 0.000 599.900 411.800 428.200               0.0450 91.400            
DSCMET_COMPS 2018-01-20 08:35:00 1.941 2.069 1.965 1.909 1.932 100.000 1.940 0.000 620.400 397.600 406.600               0.1510 222.200            
DSCMET_COMPS 2018-01-20 08:30:00 1.962 2.027 1.912 1.871 1.890 100.000 1.965 0.000 590.400 411.700 418.700               0.0780 244.500            
DSCMET_COMPS 2018-01-20 08:25:00 1.883 1.993 1.882 1.849 1.849 100.000 1.885 0.000 581.500 401.400 439.900                 0.000            
DSCMET_COMPS 2018-01-20 08:20:00 1.833 1.972 1.843 1.836 1.840 100.000 1.836 0.000 596.500 394.700 418.700                 0.000            
DSCMET_COMPS 2018-01-20 08:15:00 1.836 1.916 1.819 1.818 1.808 100.000 1.840 0.000 594.200 390.800 415.500               0.0760 120.400            
DSCMET_COMPS 2018-01-20 08:10:00 1.740 1.905 1.821 1.799 1.802 100.000 1.739 0.000 593.600 395.900 422.200               0.0730 116.700            
DSCMET_COMPS 2018-01-20 08:05:00 1.752 1.956 1.860 1.769 1.794 100.000 1.753 0.000 632.500 399.800 432.600               0.0790 97.400            
DSCMET_COMPS 2018-01-20 08:00:00 1.748 1.893 1.790 1.742 1.750 100.000 1.749 -0.000 589.200 397.300 419.200               0.0930 91.600            
DSCMET_COMPS 2018-01-20 07:55:00 1.714 1.876 1.768 1.728 1.744 100.000 1.714 0.000 619.600 383.000 415.900               0.0950 108.900            
DSCMET_COMPS 2018-01-20 07:50:00 1.724 1.806 1.732 1.725 1.729 100.000 1.731 0.000 602.000 414.900 414.100               0.0780 59.460            
DSCMET_COMPS 2018-01-20 07:45:00 1.673 1.795 1.704 1.734 1.722 100.000 1.674 0.000 602.900 416.300 430.000               0.0890 47.360            
DSCMET_COMPS 2018-01-20 07:40:00 1.710 1.794 1.710 1.764 1.693 100.000 1.709 0.000 627.300 417.800 414.200               0.1410 335.200            
DSCMET_COMPS 2018-01-20 07:35:00 1.729 1.867 1.778 1.795 1.685 100.000 1.730 0.000 631.900 417.700 415.400               0.1170 66.820            
DSCMET_COMPS 2018-01-20 07:30:00 1.738 1.880 1.779 1.817 1.690 100.000 1.737 0.000 602.900 410.200 416.100               0.0870 317.100            
DSCMET_COMPS 2018-01-20 07:25:00 1.854 1.931 1.801 1.827 1.695 100.000 1.862 0.000 604.300 408.400 440.800               0.0920 42.520            
DSCMET_COMPS 2018-01-20 07:20:00 1.848 1.950 1.813 1.848 1.706 100.000 1.848 0.000 635.400 410.600 446.900                 0.000            
DSCMET_COMPS 2018-01-20 07:15:00 1.845 1.944 1.804 1.877 1.747 100.000 1.845 0.000 627.100 408.900 443.500                 0.000            
DSCMET_COMPS 2018-01-20 07:10:00 1.882 2.001 1.878 1.880 1.794 100.000 1.885 0.000 618.900 404.700 465.400               0.1080 274.900            
DSCMET_COMPS 2018-01-20 07:05:00 1.824 2.005 1.857 1.880 1.817 100.000 1.825 0.000 633.200 404.000 455.600               0.0750 295.100            
DSCMET_COMPS 2018-01-20 07:00:00 1.886 1.979 1.832 1.880 1.838 100.000 1.892 -0.000 670.000 407.400 451.500               0.1690 296.300            
DSCMET_COMPS 2018-01-20 06:55:00 1.823 1.951 1.860 1.877 1.817 100.000 1.823 0.000 615.800 434.300 434.700               0.1370 311.600            
DSCMET_COMPS 2018-01-20 06:50:00 1.870 2.005 1.904 1.879 1.793 100.000 1.869 0.000 627.600 421.200 438.000               0.0770 69.760            
DSCMET_COMPS 2018-01-20 06:45:00 1.884 2.010 1.879 1.879 1.817 100.000 1.885 0.000 627.100 424.900 443.500               0.0410 89.700            
DSCMET_COMPS 2018-01-20 06:40:00 1.831 2.001 1.862 1.879 1.802 100.000 1.832 -0.000 643.200 419.100 433.300               0.0170 275.500            
DSCMET_COMPS 2018-01-20 06:35:00 1.923 1.952 1.813 1.899 1.766 100.000 1.929 0.000 674.400 424.200 436.200               0.1000 318.300            
DSCMET_COMPS 2018-01-20 06:30:00 1.872 1.973 1.854 1.912 1.850 100.000 1.870 0.000 636.000 418.300 436.100               0.2060 309.200            
DSCMET_COMPS 2018-01-20 06:25:00 1.877 2.018 1.895 1.906 1.875 100.000 1.877 0.000 643.400 418.300 440.200               0.1460 303.400            
DSCMET_COMPS 2018-01-20 06:20:00 1.887 2.009 1.855 1.911 1.852 100.000 1.890 0.000 628.300 408.100 444.300               0.0530 268.900            
DSCMET_COMPS 2018-01-20 06:15:00 1.871 1.965 1.841 1.928 1.840 100.000 1.870 0.000 653.200 419.900 418.800               0.0890 297.500            
DSCMET_COMPS 2018-01-20 06:10:00 1.929 1.981 1.824 1.955 1.826 100.000 1.934 -0.000 644.800 420.500 429.900                 0.000            
DSCMET_COMPS 2018-01-20 06:05:00 1.890 2.000 1.840 2.007 1.858 100.000 1.891 0.000 622.600 419.500 435.900               0.1700 307.800            
DSCMET_COMPS 2018-01-20 06:00:00 1.941 2.032 1.900 2.057 1.882 100.000 1.941 0.000 654.900 413.100 421.800               0.1730 310.000            
DSCMET_COMPS 2018-01-20 05:55:00 2.028 2.134 2.009 2.078 1.845 100.000 2.031 0.000 646.000 411.900 422.700               0.1460 308.600            
DSCMET_COMPS 2018-01-20 05:50:00 2.036 2.147 2.018 2.089 1.949 100.000 2.037 -0.000 652.800 426.400 417.800               0.1330 286.400            
DSCMET_COMPS 2018-01-20 05:45:00 2.116 2.221 2.099 2.107 1.966 100.000 2.118 0.000 628.700 418.600 423.500               0.1360 277.100            
DSCMET_COMPS 2018-01-20 05:40:00 2.183 2.221 2.089 2.109 2.011 100.000 2.191 0.000 610.100 428.400 424.700               0.0740 266.200            
DSCMET_COMPS 2018-01-20 05:35:00 2.043 2.149 2.100 2.105 2.077 100.000 2.043 0.000 626.900 405.200 443.400               0.1310 312.400            
DSCMET_COMPS 2018-01-20 05:30:00 2.077 2.158 2.094 2.091 2.053 100.000 2.076 0.000 624.000 433.000 449.300               0.0800 36.830            
DSCMET_COMPS 2018-01-20 05:25:00 2.096 2.202 2.101 2.082 2.032 100.000 2.099 0.000 613.400 413.500 429.400               0.1120 300.400            
DSCMET_COMPS 2018-01-20 05:20:00 2.075 2.211 2.112 2.073 2.050 100.000 2.073 -0.000 639.900 433.200 449.900               0.0830 3.302            
DSCMET_COMPS 2018-01-20 05:15:00 2.122 2.221 2.080 2.061 2.024 100.000 2.125 0.000 655.300 421.000 438.200               0.0100 240.000            
DSCMET_COMPS 2018-01-20 05:10:00 2.118 2.170 2.045 2.057 2.029 100.000 2.120 0.000 636.500 416.800 429.100               0.0750 302.800            
DSCMET_COMPS 2018-01-20 05:05:00 2.074 2.185 2.090 2.053 2.036 100.000 2.072 -0.000 639.700 418.400 430.600                 0.000            
DSCMET_COMPS 2018-01-20 05:00:00 2.053 2.167 2.040 2.056 2.009 100.000 2.054 0.000 637.400 427.000 415.900               0.0360 322.300            
DSCMET_COMPS 2018-01-20 04:55:00 1.973 2.165 2.035 2.070 1.983 100.000 1.973 0.000 618.700 429.800 433.500               0.0600 87.900            
DSCMET_COMPS 2018-01-20 04:50:00 2.048 2.152 2.065 2.082 1.950 100.000 2.048 0.000 640.300 410.700 427.500               0.0980 49.740            
DSCMET_COMPS 2018-01-20 04:45:00 2.145 2.195 2.072 2.089 1.955 100.000 2.150 -0.000 618.600 438.000 433.100               0.0480 82.100            
DSCMET_COMPS 2018-01-20 04:40:00 2.079 2.182 2.059 2.103 1.999 100.000 2.079 0.000 642.800 429.400 420.900               0.2040 316.100            
DSCMET_COMPS 2018-01-20 04:35:00 2.093 2.195 2.053 2.116 2.041 100.000 2.093 0.000 627.300 409.900 413.200               0.1160 291.900            
DSCMET_COMPS 2018-01-20 04:30:00 2.153 2.233 2.107 2.118 2.047 100.000 2.152 0.000 632.600 424.900 403.100               0.1710 252.500            
DSCMET_COMPS 2018-01-20 04:25:00 2.141 2.256 2.140 2.118 2.089 100.000 2.140 -0.000 617.900 415.300 391.700               0.1460 267.800            
DSCMET_COMPS 2018-01-20 04:20:00 2.183 2.249 2.114 2.118 2.088 100.000 2.187 0.000 648.900 415.700 399.500               0.0280 255.500            
DSCMET_COMPS 2018-01-20 04:15:00 2.149 2.240 2.110 2.122 2.071 100.000 2.150 0.000 647.400 412.700 401.900               0.0790 68.950            
DSCMET_COMPS 2018-01-20 04:10:00 2.183 2.255 2.149 2.127 2.096 100.000 2.181 0.000 624.200 407.400 424.700               0.1380 315.100            
DSCMET_COMPS 2018-01-20 04:05:00 2.223 2.323 2.188 2.117 2.136 100.000 2.224 0.000 630.400 414.000 435.600               0.0600 259.100            
DSCMET_COMPS 2018-01-20 04:00:00 2.200 2.293 2.175 2.117 2.114 100.000 2.199 0.000 635.600 414.900 424.100                 0.000            
DSCMET_COMPS 2018-01-20 03:55:00 2.205 2.302 2.167 2.117 2.086 100.000 2.206 0.000 616.600 399.800 439.500               0.0950 98.600            
DSCMET_COMPS 2018-01-20 03:50:00 2.190 2.248 2.135 2.122 2.096 100.000 2.194 -0.000 643.300 407.100 434.700               0.1410 14.780            
DSCMET_COMPS 2018-01-20 03:45:00 2.149 2.261 2.138 2.144 2.065 100.000 2.148 0.000 635.200 412.000 440.200               0.1400 345.800            
DSCMET_COMPS 2018-01-20 03:40:00 2.163 2.253 2.151 2.153 2.089 100.000 2.163 0.000 646.700 441.700 423.900               0.0890 315.900            
DSCMET_COMPS 2018-01-20 03:35:00 2.154 2.258 2.166 2.164 2.086 100.000 2.155 0.000 639.000 427.200 441.100               0.0980 67.380            
DSCMET_COMPS 2018-01-20 03:30:00 2.165 2.283 2.212 2.164 2.107 100.000 2.166 0.000 658.000 441.400 449.200               0.0840 356.200            
DSCMET_COMPS 2018-01-20 03:25:00 2.271 2.326 2.212 2.157 2.138 100.000 2.277 0.000 638.900 438.600 423.100               0.0890 310.500            
DSCMET_COMPS 2018-01-20 03:20:00 2.219 2.332 2.202 2.148 2.129 100.000 2.219 0.000 654.600 433.200 425.400               0.0720 303.600            
DSCMET_COMPS 2018-01-20 03:15:00 2.199 2.337 2.216 2.139 2.149 100.000 2.197 0.000 649.600 431.500 429.900               0.1150 106.700            
DSCMET_COMPS 2018-01-20 03:10:00 2.227 2.287 2.140 2.148 2.112 100.000 2.229 0.000 653.500 430.100 447.700               0.1260 41.320            
DSCMET_COMPS 2018-01-20 03:05:00 2.213 2.285 2.142 2.153 2.123 100.000 2.213 0.000 646.400 446.900 439.800               0.0830 13.110            
DSCMET_COMPS 2018-01-20 03:00:00 2.185 2.272 2.137 2.164 2.114 100.000 2.184 0.000 650.600 442.400 426.900               0.1660 56.490            
DSCMET_COMPS 2018-01-20 02:55:00 2.196 2.256 2.140 2.179 2.102 100.000 2.202 0.000 667.100 439.500 419.700                 0.000            
DSCMET_COMPS 2018-01-20 02:50:00 2.146 2.245 2.150 2.193 2.115 100.000 2.147 0.000 647.000 430.900 444.200               0.1300 107.100            
DSCMET_COMPS 2018-01-20 02:45:00 2.161 2.248 2.159 2.214 2.125 100.000 2.160 0.000 672.200 455.400 457.200               0.1070 101.700            
DSCMET_COMPS 2018-01-20 02:40:00 2.149 2.239 2.159 2.236 2.165 100.000 2.148 0.000 654.000 461.400 468.600               0.1470 102.700            
DSCMET_COMPS 2018-01-20 02:35:00 2.150 2.244 2.146 2.260 2.152 100.000 2.149 0.000 682.600 440.800 457.600               0.0990 112.400            
DSCMET_COMPS 2018-01-20 02:30:00 2.193 2.247 2.164 2.292 2.193 100.000 2.191 0.000 670.100 448.500 461.500               0.1960 113.700            
DSCMET_COMPS 2018-01-20 02:25:00 2.200 2.249 2.185 2.329 2.177 100.000 2.205 0.000 654.600 418.700 443.900               0.2220 109.700            
DSCMET_COMPS 2018-01-20 02:20:00 2.207 2.310 2.299 2.348 2.286 100.000 2.206 0.000 680.300 451.100 453.100               0.1890 128.800            
DSCMET_COMPS 2018-01-20 02:15:00 2.282 2.464 2.378 2.352 2.312 100.000 2.281 0.000 686.600 448.100 455.700               0.1120 105.000            
DSCMET_COMPS 2018-01-20 02:10:00 2.417 2.500 2.388 2.344 2.306 100.000 2.416 0.000 670.300 442.200 455.100               0.1030 98.800            
DSCMET_COMPS 2018-01-20 02:05:00 2.380 2.477 2.364 2.354 2.278 100.000 2.379 -0.000 688.500 456.500 467.800               0.1990 88.200            
DSCMET_COMPS 2018-01-20 02:00:00 2.335 2.437 2.350 2.363 2.295 100.000 2.334 0.000 679.900 465.600 453.700               0.0790 52.260            
DSCMET_COMPS 2018-01-20 01:55:00 2.403 2.444 2.356 2.377 2.295 100.000 2.406 -0.000 670.300 458.000 466.700               0.0710 84.700            
DSCMET_COMPS 2018-01-20 01:50:00 2.404 2.485 2.346 2.404 2.293 100.000 2.402 0.000 656.600 436.500 466.400                 0.000            
DSCMET_COMPS 2018-01-20 01:45:00 2.406 2.468 2.323 2.439 2.326 100.000 2.406 0.000 643.600 435.400 469.700               0.1710 330.300            
DSCMET_COMPS 2018-01-20 01:40:00 2.406 2.445 2.302 2.516 2.297 100.000 2.406 0.000 655.400 436.100 457.300               0.2350 332.000            
DSCMET_COMPS 2018-01-20 01:35:00 2.449 2.482 2.359 2.615 2.318 100.000 2.450 0.000 653.100 442.600 454.300               0.2040 339.000            
DSCMET_COMPS 2018-01-20 01:30:00 2.552 2.601 2.506 2.706 2.321 100.000 2.552 0.000 672.400 433.100 452.500               0.2230 37.030            
DSCMET_COMPS 2018-01-20 01:25:00 2.760 2.797 2.601 2.822 2.355 100.000 2.767 0.000 667.800 430.400 460.600               0.1670 121.200            
DSCMET_COMPS 2018-01-20 01:20:00 2.818 2.882 2.800 2.888 2.728 100.000 2.818 0.000 624.600 436.200 453.200               0.2470 117.800            
DSCMET_COMPS 2018-01-20 01:15:00 2.888 3.030 2.929 2.895 2.835 100.000 2.886 0.000 628.600 420.800 431.600               0.1670 111.300            
DSCMET_COMPS 2018-01-20 01:10:00 2.894 3.031 2.914 2.902 2.853 100.000 2.894 0.000 656.000 427.900 421.400               0.0380 49.350            
DSCMET_COMPS 2018-01-20 01:05:00 2.879 3.011 2.897 2.907 2.859 100.000 2.878 0.000 635.000 411.000 449.600               0.0310 72.440            
DSCMET_COMPS 2018-01-20 01:00:00 2.913 3.027 2.884 2.909 2.891 100.000 2.911 0.000 628.000 410.100 444.800               0.0590 134.200            
DSCMET_COMPS 2018-01-20 00:55:00 2.940 3.007 2.880 2.913 2.894 100.000 2.946 0.000 652.100 414.800 431.600               0.0670 43.940            
DSCMET_COMPS 2018-01-20 00:50:00 2.877 3.004 2.910 2.918 2.901 100.000 2.878 0.000 634.600 410.600 458.400               0.0580 56.490            
DSCMET_COMPS 2018-01-20 00:45:00 2.918 3.013 2.889 2.923 2.905 100.000 2.917 0.000 631.800 412.200 439.900                 0.000            
DSCMET_COMPS 2018-01-20 00:40:00 2.916 3.022 2.903 2.918 2.904 100.000 2.918 0.000 653.100 412.100 431.900               0.0220 295.900            
DSCMET_COMPS 2018-01-20 00:35:00 2.889 3.021 2.891 2.922 2.920 100.000 2.889 0.000 635.300 404.800 420.100               0.0170 344.700            
DSCMET_COMPS 2018-01-20 00:30:00 2.916 3.021 2.903 2.923 2.911 100.000 2.916 0.000 647.800 414.600 434.400               0.0250 237.100            
DSCMET_COMPS 2018-01-20 00:25:00 2.962 3.015 2.891 2.931 2.902 100.000 2.966 0.000 603.000 434.900 434.700               0.0480 300.200            
DSCMET_COMPS 2018-01-20 00:20:00 2.938 3.031 2.934 2.939 2.910 100.000 2.939 0.000 606.000 411.100 440.200               0.0170 59.140            
DSCMET_COMPS 2018-01-20 00:15:00 2.928 3.061 2.948 2.942 2.919 100.000 2.927 -0.000 629.700 397.600 450.800               0.0410 62.710            
DSCMET_COMPS 2018-01-20 00:10:00 2.936 3.058 2.936 2.939 2.935 100.000 2.937 0.000 668.400 406.300 451.500               0.0090 101.700            
DSCMET_COMPS 2018-01-20 00:05:00 2.936 3.053 2.928 2.935 2.943 100.000 2.938 0.000 626.800 417.300 426.900               0.0020 265.100            
DSCMET_COMPS 2018-01-20 00:00:00 2.930 3.057 2.926 2.934 2.932 100.000 2.929 0.000 613.400 429.700 436.600               0.0110 51.790            
DSCMET_COMPS 2018-01-19 23:55:00 2.937 3.049 2.915 2.931 2.932 100.000 2.940 0.000 638.400 432.100 438.500               0.0070 32.490            
DSCMET_COMPS 2018-01-19 23:50:00 2.916 3.004 2.891 2.926 2.933 100.000 2.920 0.000 625.600 416.500 423.700               0.0140 87.000            
DSCMET_COMPS 2018-01-19 23:45:00 2.893 2.986 2.871 2.931 2.941 100.000 2.893 -0.000 608.100 417.100 415.900               0.0870 297.900            
DSCMET_COMPS 2018-01-19 23:40:00 2.912 3.013 2.896 2.938 2.937 100.000 2.912 0.000 604.000 409.200 412.700                 0.000            
DSCMET_COMPS 2018-01-19 23:35:00 2.908 3.008 2.893 2.950 2.928 100.000 2.909 0.000 639.500 410.400 426.000                 0.000            
DSCMET_COMPS 2018-01-19 23:30:00 2.903 3.014 2.919 2.955 2.909 100.000 2.903 0.000 623.100 409.300 425.700               0.0560 4.743            
DSCMET_COMPS 2018-01-19 23:25:00 2.917 3.031 2.936 2.967 2.931 100.000 2.918 0.000 618.500 400.200 425.100               0.0530 51.790            
DSCMET_COMPS 2018-01-19 23:20:00 2.959 3.022 2.923 2.972 2.945 100.000 2.964 0.000 612.000 414.000 426.400               0.1600 308.300            
DSCMET_COMPS 2018-01-19 23:15:00 2.990 3.087 3.029 2.969 2.973 100.000 2.989 0.000 600.800 414.000 401.400               0.0720 315.500            
DSCMET_COMPS 2018-01-19 23:10:00 3.011 3.136 3.017 2.966 2.947 100.000 3.011 0.000 570.000 423.900 399.100               0.0740 248.300            
DSCMET_COMPS 2018-01-19 23:05:00 2.954 3.100 3.008 2.964 2.956 100.000 2.956 0.000 591.500 411.300 404.700               0.0660 216.800            
DSCMET_COMPS 2018-01-19 23:00:00 2.938 3.078 2.969 2.971 2.958 100.000 2.937 0.000 595.600 408.900 407.500               0.0100 63.700            
DSCMET_COMPS 2018-01-19 22:55:00 2.938 3.046 2.957 2.975 2.969 100.000 2.941 0.000 627.800 407.900 402.700               0.0180 88.400            
DSCMET_COMPS 2018-01-19 22:50:00 2.964 3.061 2.964 2.976 2.985 100.000 2.968 0.000 602.100 392.000 414.300               0.1260 353.000            
DSCMET_COMPS 2018-01-19 22:45:00 2.937 3.084 2.987 2.984 2.977 100.000 2.937 0.000 588.000 388.900 418.200               0.0230 35.530            
DSCMET_COMPS 2018-01-19 22:40:00 2.925 3.080 2.972 2.996 2.979 100.000 2.922 0.000 571.400 393.800 435.900               0.0110 76.400            
DSCMET_COMPS 2018-01-19 22:35:00 2.955 3.093 2.963 3.014 2.989 100.000 2.956 0.000 573.000 408.000 432.500               0.0520 85.700            
DSCMET_COMPS 2018-01-19 22:30:00 2.999 3.120 3.017 3.027 2.989 100.000 2.997 0.000 614.500 407.300 419.600                 0.000            
DSCMET_COMPS 2018-01-19 22:25:00 3.021 3.158 3.051 3.038 3.004 100.000 3.023 0.000 608.300 407.300 416.600               0.0710 245.900            
DSCMET_COMPS 2018-01-19 22:20:00 3.033 3.110 3.029 3.046 3.024 100.000 3.036 0.000 578.800 402.600 414.400               0.0380 260.700            
DSCMET_COMPS 2018-01-19 22:15:00 3.020 3.110 3.012 3.049 3.036 100.000 3.018 0.000 585.900 402.500 402.400               0.0650 57.570            
DSCMET_COMPS 2018-01-19 22:10:00 3.025 3.133 3.050 3.052 3.047 100.000 3.026 0.000 586.500 404.900 403.000               0.0950 319.100            
DSCMET_COMPS 2018-01-19 22:05:00 3.086 3.188 3.103 3.048 3.057 100.000 3.089 0.000 596.400 403.500 411.900               0.1010 312.400            
DSCMET_COMPS 2018-01-19 22:00:00 3.037 3.191 3.077 3.048 3.047 100.000 3.036 0.000 616.300 398.100 414.700               0.1000 193.600            
DSCMET_COMPS 2018-01-19 21:55:00 3.050 3.187 3.079 3.046 3.016 100.000 3.053 0.000 587.900 391.900 416.200               0.0800 89.700            
DSCMET_COMPS 2018-01-19 21:50:00 3.093 3.154 3.066 3.041 3.023 100.000 3.097 0.000 597.800 404.300 409.100               0.0830 97.300            
DSCMET_COMPS 2018-01-19 21:45:00 3.031 3.190 3.091 3.038 3.032 100.000 3.031 0.000 651.000 404.400 389.800               0.0830 270.500            
DSCMET_COMPS 2018-01-19 21:40:00 3.032 3.185 3.077 3.029 3.042 100.000 3.032 -0.000 591.000 406.100 422.600               0.1170 104.000            
DSCMET_COMPS 2018-01-19 21:35:00 3.039 3.175 3.064 3.025 3.060 100.000 3.042 0.000 606.100 403.800 439.600               0.0360 110.400            
DSCMET_COMPS 2018-01-19 21:30:00 3.020 3.137 3.032 3.019 3.044 100.000 3.021 0.000 636.500 401.800 429.000               0.0230 89.600            
DSCMET_COMPS 2018-01-19 21:25:00 3.013 3.135 3.003 3.019 3.053 100.000 3.014 0.000 598.600 390.900 409.000                 0.000            
DSCMET_COMPS 2018-01-19 21:20:00 3.037 3.111 2.997 3.018 3.025 100.000 3.042 0.000 599.000 387.600 401.500               0.0400 89.000            
DSCMET_COMPS 2018-01-19 21:15:00 3.009 3.103 2.978 3.022 3.004 100.000 3.009 0.000 595.100 387.200 425.800               0.0450 80.100            
DSCMET_COMPS 2018-01-19 21:10:00 2.974 3.089 2.975 3.033 2.999 100.000 2.972 0.000 630.300 407.700 428.800               0.1310 312.600            
DSCMET_COMPS 2018-01-19 21:05:00 3.035 3.141 2.990 3.047 3.004 100.000 3.034 -0.000 609.400 414.100 411.500               0.0350 274.600            
DSCMET_COMPS 2018-01-19 21:00:00 3.025 3.138 3.043 3.051 3.037 100.000 3.025 0.000 596.000 422.000 410.600               0.1490 298.200            
DSCMET_COMPS 2018-01-19 20:55:00 3.025 3.176 3.124 3.025 3.047 100.000 3.024 0.000 603.400 393.500 411.000               0.0680 238.300            
DSCMET_COMPS 2018-01-19 20:50:00 3.102 3.210 3.097 3.009 3.007 100.000 3.107 0.000 617.000 382.900 410.100               0.1530 177.800            
DSCMET_COMPS 2018-01-19 20:45:00 3.025 3.130 3.028 3.008 3.020 100.000 3.026 0.000 607.600 397.700 408.800               0.0770 81.000            
DSCMET_COMPS 2018-01-19 20:40:00 3.028 3.125 3.010 3.008 3.038 100.000 3.029 0.000 582.600 416.200 432.400               0.0940 90.000            
DSCMET_COMPS 2018-01-19 20:35:00 3.028 3.123 2.997 3.003 3.051 100.000 3.028 0.000 608.900 421.400 433.900               0.2260 35.700            
DSCMET_COMPS 2018-01-19 20:30:00 3.049 3.164 3.030 2.996 3.012 100.000 3.050 0.000 630.100 406.400 431.600               0.1120 255.100            
DSCMET_COMPS 2018-01-19 20:25:00 3.009 3.143 2.997 2.999 3.014 100.000 3.009 0.000 618.000 391.600 429.200               0.1270 286.400            
DSCMET_COMPS 2018-01-19 20:20:00 3.035 3.118 3.016 3.007 3.002 100.000 3.040 -0.000 656.900 396.900 421.900                 0.000            
DSCMET_COMPS 2018-01-19 20:15:00 3.031 3.176 3.046 3.018 3.016 100.000 3.033 0.000 644.000 405.100 439.000               0.0700 65.300            
DSCMET_COMPS 2018-01-19 20:10:00 3.009 3.141 3.015 3.024 3.011 100.000 3.009 0.000 615.200 414.200 421.300               0.0300 235.200            
DSCMET_COMPS 2018-01-19 20:05:00 3.044 3.178 3.045 3.031 3.009 100.000 3.045 0.000 601.800 425.500 425.500               0.0460 340.100            
DSCMET_COMPS 2018-01-19 20:00:00 3.037 3.171 3.069 3.040 3.031 100.000 3.035 0.000 614.800 407.100 419.300               0.1080 221.700            
DSCMET_COMPS 2018-01-19 19:55:00 3.023 3.155 3.083 3.046 3.037 100.000 3.023 0.000 625.400 422.200 442.800               0.0540 37.970            
DSCMET_COMPS 2018-01-19 19:50:00 3.057 3.159 3.079 3.039 3.060 100.000 3.063 0.000 611.800 423.000 437.900               0.0320 88.400            
DSCMET_COMPS 2018-01-19 19:45:00 3.025 3.152 3.061 3.037 3.070 100.000 3.028 0.000 638.800 425.700 441.000               0.0640 35.170            
DSCMET_COMPS 2018-01-19 19:40:00 3.008 3.145 3.037 3.049 3.051 100.000 3.007 0.000 626.400 410.700 422.800               0.0670 46.950            
DSCMET_COMPS 2018-01-19 19:35:00 3.010 3.159 3.043 3.066 3.036 100.000 3.011 0.000 604.400 401.400 441.700               0.0200 88.400            
DSCMET_COMPS 2018-01-19 19:30:00 3.052 3.181 3.054 3.091 3.051 100.000 3.054 0.000 616.000 414.400 431.800               0.1140 65.420            
DSCMET_COMPS 2018-01-19 19:25:00 3.116 3.212 3.087 3.118 3.076 100.000 3.115 -0.000 609.200 419.700 422.000               0.0880 302.900            
DSCMET_COMPS 2018-01-19 19:20:00 3.137 3.262 3.135 3.138 3.079 100.000 3.136 0.000 596.400 400.600 419.800               0.1120 307.000            
DSCMET_COMPS 2018-01-19 19:15:00 3.225 3.314 3.202 3.144 3.120 100.000 3.232 -0.000 603.100 398.000 429.400                 0.000            
DSCMET_COMPS 2018-01-19 19:10:00 3.176 3.290 3.188 3.137 3.146 100.000 3.176 0.000 603.800 405.700 418.700               0.1320 330.800            
DSCMET_COMPS 2018-01-19 19:05:00 3.138 3.270 3.163 3.134 3.122 100.000 3.139 0.000 617.900 409.500 417.200               0.1930 216.700            
DSCMET_COMPS 2018-01-19 19:00:00 3.137 3.208 3.123 3.134 3.148 100.000 3.138 0.000 608.600 410.200 415.600               0.2060 339.000            
DSCMET_COMPS 2018-01-19 18:55:00 3.183 3.260 3.158 3.128 3.122 100.000 3.184 0.000 610.600 403.700 402.700               0.2060 306.500            
DSCMET_COMPS 2018-01-19 18:50:00 3.135 3.262 3.142 3.128 3.101 100.000 3.134 0.000 635.400 401.400 408.800               0.1110 279.600            
DSCMET_COMPS 2018-01-19 18:45:00 3.148 3.266 3.143 3.131 3.116 100.000 3.150 0.000 591.600 406.200 429.900               0.1350 104.700            
DSCMET_COMPS 2018-01-19 18:40:00 3.225 3.268 3.145 3.135 3.118 100.000 3.231 -0.000 615.100 404.300 427.100               0.1060 41.780            
DSCMET_COMPS 2018-01-19 18:35:00 3.155 3.260 3.165 3.139 3.115 100.000 3.153 0.000 634.600 410.600 426.700               0.0980 85.400            
DSCMET_COMPS 2018-01-19 18:30:00 3.135 3.261 3.163 3.143 3.106 100.000 3.134 0.000 619.800 406.800 423.500               0.0580 57.690            
DSCMET_COMPS 2018-01-19 18:25:00 3.143 3.251 3.153 3.142 3.109 100.000 3.145 0.000 582.700 409.300 426.400               0.0550 51.290            
DSCMET_COMPS 2018-01-19 18:20:00 3.137 3.273 3.166 3.143 3.125 100.000 3.136 0.000 603.100 415.900 408.700               0.0430 88.600            
DSCMET_COMPS 2018-01-19 18:15:00 3.126 3.223 3.132 3.147 3.125 100.000 3.126 0.000 616.600 417.900 423.200               0.0920 83.000            
DSCMET_COMPS 2018-01-19 18:10:00 3.172 3.245 3.153 3.161 3.129 100.000 3.176 0.000 583.100 400.600 409.100                 0.000            
DSCMET_COMPS 2018-01-19 18:05:00 3.201 3.263 3.167 3.168 3.144 100.000 3.206 0.000 574.400 400.900 406.000                 0.000            
DSCMET_COMPS 2018-01-19 18:00:00 3.147 3.247 3.160 3.176 3.175 100.000 3.147 0.000 581.900 412.600 402.100               0.0790 92.400            
DSCMET_COMPS 2018-01-19 17:55:00 3.142 3.256 3.151 3.182 3.184 100.000 3.141 0.000 617.600 401.500 400.300               0.1450 343.200            
DSCMET_COMPS 2018-01-19 17:50:00 3.181 3.267 3.168 3.185 3.226 100.000 3.182 0.000 590.900 395.100 385.800               0.1110 72.780            
DSCMET_COMPS 2018-01-19 17:45:00 3.154 3.297 3.184 3.186 3.244 100.000 3.154 0.000 612.300 387.600 401.600               0.0860 73.950            
DSCMET_COMPS 2018-01-19 17:40:00 3.152 3.261 3.153 3.207 3.175 100.000 3.153 0.000 580.100 392.300 409.400               0.0830 62.060            
DSCMET_COMPS 2018-01-19 17:35:00 3.243 3.281 3.161 3.240 3.198 100.000 3.248 -0.000 582.500 395.900 412.700               0.1680 296.400            
DSCMET_COMPS 2018-01-19 17:30:00 3.254 3.363 3.229 3.281 3.213 100.000 3.254 -0.000 583.300 388.700 408.900               0.1440 11.480            
DSCMET_COMPS 2018-01-19 17:25:00 3.274 3.392 3.231 3.327 3.247 100.000 3.274 0.000 594.700 403.500 410.100               0.2090 81.800            
DSCMET_COMPS 2018-01-19 17:20:00 3.345 3.434 3.306 3.365 3.349 100.000 3.347 0.000 629.600 408.100 415.000               0.2170 331.800            
DSCMET_COMPS 2018-01-19 17:15:00 3.372 3.459 3.355 3.375 3.378 100.000 3.373 0.000 588.300 408.100 417.000               0.1140 202.700            
DSCMET_COMPS 2018-01-19 17:10:00 3.301 3.443 3.365 3.388 3.381 100.000 3.302 0.000 605.800 410.400 405.700               0.1790 183.300            
DSCMET_COMPS 2018-01-19 17:05:00 3.400 3.465 3.349 3.411 3.381 100.000 3.406 0.000 617.400 386.300 395.400               0.1920 332.100            
DSCMET_COMPS 2018-01-19 17:00:00 3.406 3.521 3.359 3.462 3.377 100.000 3.407 0.000 595.900 385.700 406.700                 0.000            
DSCMET_COMPS 2018-01-19 16:55:00 3.371 3.527 3.362 3.518 3.460 100.000 3.371 0.000 574.200 382.000 393.600               0.1360 12.350            
DSCMET_COMPS 2018-01-19 16:50:00 3.447 3.586 3.432 3.574 3.485 100.000 3.449 0.000 580.800 379.500 410.600               0.0990 63.050            
DSCMET_COMPS 2018-01-19 16:45:00 3.517 3.606 3.468 3.635 3.507 100.000 3.519 0.000 579.400 378.900 418.900               0.2260 20.840            
DSCMET_COMPS 2018-01-19 16:40:00 3.496 3.634 3.515 3.697 3.553 100.000 3.496 0.000 613.000 380.000 425.100               0.2500 346.800            
DSCMET_COMPS 2018-01-19 16:35:00 3.627 3.702 3.602 3.747 3.658 100.000 3.630 0.000 606.500 386.300 427.900               0.2440 337.500            
DSCMET_COMPS 2018-01-19 16:30:00 3.724 3.754 3.670 3.778 3.713 100.000 3.732 0.000 578.600 390.700 420.300               0.2350 284.400            
DSCMET_COMPS 2018-01-19 16:25:00 3.668 3.791 3.717 3.827 3.692 100.000 3.670 0.000 602.400 395.900 418.100               0.0760 47.980            
DSCMET_COMPS 2018-01-19 16:20:00 3.630 3.775 3.718 3.872 3.759 100.000 3.632 0.000 582.200 389.000 412.700               0.1140 298.600            
DSCMET_COMPS 2018-01-19 16:15:00 3.627 3.764 3.757 3.907 3.774 100.000 3.627 0.000 590.700 387.600 413.700               0.1680 327.300            
DSCMET_COMPS 2018-01-19 16:10:00 3.651 3.780 3.781 3.957 3.727 100.000 3.653 0.000 605.000 391.900 419.300               0.2070 341.000            
DSCMET_COMPS 2018-01-19 16:05:00 3.722 3.842 3.846 3.990 3.773 100.000 3.723 0.000 613.300 387.100 416.200               0.1360 339.000            
DSCMET_COMPS 2018-01-19 16:00:00 3.793 3.899 3.854 4.013 3.910 100.000 3.793 0.000 615.100 389.700 414.400               0.0980 27.740            
DSCMET_COMPS 2018-01-19 15:55:00 3.903 3.973 3.915 4.013 4.015 100.000 3.910 0.000 629.600 390.100 416.000                 0.000            
DSCMET_COMPS 2018-01-19 15:50:00 3.834 3.949 3.912 4.005 3.957 100.000 3.835 0.000 630.900 393.100 430.100               0.0550 243.000            
DSCMET_COMPS 2018-01-19 15:45:00 3.878 4.009 3.935 4.011 3.933 100.000 3.878 0.000 612.700 384.400 440.200               0.1140 7.512            
DSCMET_COMPS 2018-01-19 15:40:00 3.903 4.002 3.912 4.027 3.952 100.000 3.905 0.000 606.000 381.600 413.700               0.1270 104.300            
DSCMET_COMPS 2018-01-19 15:35:00 3.890 3.967 3.923 4.066 3.958 100.000 3.891 0.000 611.300 385.000 413.100               0.2930 5.975            
DSCMET_COMPS 2018-01-19 15:30:00 3.902 4.015 3.941 4.083 3.969 100.000 3.902 0.000 639.100 383.100 411.600               0.1200 78.460            
DSCMET_COMPS 2018-01-19 15:25:00 3.980 4.044 3.976 4.086 4.074 100.000 3.984 0.000 634.600 383.400 416.200               0.2530 358.600            
DSCMET_COMPS 2018-01-19 15:20:00 3.961 4.063 4.017 4.059 4.071 100.000 3.966 0.000 644.200 383.700 412.400               0.1920 76.820            
DSCMET_COMPS 2018-01-19 15:15:00 3.902 4.048 3.993 4.037 4.096 100.000 3.904 0.000 632.000 381.800 414.600               0.1580 160.600            
DSCMET_COMPS 2018-01-19 15:10:00 3.854 4.032 4.000 4.025 3.987 100.000 3.855 0.000 625.300 382.500 413.300               0.2970 302.600            
DSCMET_COMPS 2018-01-19 15:05:00 3.846 3.970 3.947 4.010 4.102 100.000 3.849 0.000 620.200 385.200 413.100               0.1030 144.300            
DSCMET_COMPS 2018-01-19 15:00:00 3.853 3.938 3.908 4.001 4.094 100.000 3.857 0.000 611.800 384.800 412.000               0.2120 258.500            
DSCMET_COMPS 2018-01-19 14:55:00 3.813 3.927 3.877 3.987 4.164 100.000 3.814 0.000 610.100 408.400 417.100               0.2500 126.200            
DSCMET_COMPS 2018-01-19 14:50:00 3.752 3.886 3.825 3.930 4.169 100.000 3.752 0.000 614.400 411.800 417.200                 0.000            
DSCMET_COMPS 2018-01-19 14:45:00 3.785 3.783 3.734 3.904 3.825 100.000 3.793 0.000 640.700 421.300 400.900               0.2150 344.300            
DSCMET_COMPS 2018-01-19 14:40:00 3.780 3.823 3.698 3.952 3.752 100.000 3.781 0.000 677.900 427.800 426.400               0.3370 327.800            
DSCMET_COMPS 2018-01-19 14:35:00 3.831 3.933 3.794 4.057 3.849 100.000 3.831 0.000 646.300 431.000 437.100               0.5420 324.700            
DSCMET_COMPS 2018-01-19 14:30:00 3.892 4.027 3.943 4.139 4.019 100.000 3.892 0.000 597.200 411.600 415.100               0.3310 317.600            
DSCMET_COMPS 2018-01-19 14:25:00 3.925 4.069 4.038 4.191 4.172 100.000 3.927 0.000 579.600 397.000 420.000               0.2170 27.810            
DSCMET_COMPS 2018-01-19 14:20:00 3.903 4.130 4.137 4.217 4.149 100.000 3.905 0.000 588.000 391.500 426.100               0.1650 78.980            
DSCMET_COMPS 2018-01-19 14:15:00 3.937 4.143 4.204 4.235 4.302 100.000 3.936 0.000 598.500 394.800 418.400               0.2560 35.620            
DSCMET_COMPS 2018-01-19 14:10:00 4.042 4.110 3.997 4.190 4.302 100.000 4.049 0.000 584.100 395.700 407.400               0.2500 359.700            
DSCMET_COMPS 2018-01-19 14:05:00 3.917 4.061 3.967 4.155 4.236 100.000 3.920 0.000 577.100 397.800 413.400               0.3100 332.000            
DSCMET_COMPS 2018-01-19 14:00:00 3.807 3.967 3.955 4.121 4.158 100.000 3.806 0.000 615.600 388.700 408.000               0.1180 354.100            
DSCMET_COMPS 2018-01-19 13:55:00 3.834 3.920 3.799 4.063 4.152 100.000 3.834 0.000 615.700 391.400 399.500               0.2120 315.400            
DSCMET_COMPS 2018-01-19 13:50:00 3.852 3.959 3.830 4.037 4.046 100.000 3.855 0.000 611.500 405.900 395.700               0.1630 345.800            
DSCMET_COMPS 2018-01-19 13:45:00 3.746 3.891 3.819 4.004 4.001 100.000 3.746 0.000 641.900 397.400 397.400                 0.000            
DSCMET_COMPS 2018-01-19 13:40:00 3.695 3.820 3.768 3.968 4.035 100.000 3.694 -0.000 613.800 397.900 399.500                 0.000            
DSCMET_COMPS 2018-01-19 13:35:00 3.756 3.831 3.749 3.959 3.949 100.000 3.763 0.000 612.800 398.200 404.300               0.1450 334.500            
DSCMET_COMPS 2018-01-19 13:30:00 3.729 3.816 3.693 3.976 3.973 100.000 3.730 0.000 612.200 397.700 407.600               0.3690 319.900            
DSCMET_COMPS 2018-01-19 13:25:00 3.757 3.876 3.777 3.990 4.072 100.000 3.758 -0.000 639.300 412.100 426.800               0.3680 331.000            
DSCMET_COMPS 2018-01-19 13:20:00 3.739 3.857 3.756 3.995 4.011 100.000 3.739 0.000 610.300 400.900 429.700               0.4040 335.100            
DSCMET_COMPS 2018-01-19 13:15:00 3.665 3.770 3.742 3.956 3.975 100.000 3.665 0.000 645.600 413.100 427.700               0.2910 307.700            
DSCMET_COMPS 2018-01-19 13:10:00 3.692 3.792 3.685 3.946 3.873 100.000 3.692 0.000 638.600 422.900 424.500               0.4020 332.300            
DSCMET_COMPS 2018-01-19 13:05:00 3.776 3.837 3.699 3.943 3.905 100.000 3.780 0.000 613.600 410.600 444.100               0.4530 330.200            
DSCMET_COMPS 2018-01-19 13:00:00 3.700 3.753 3.630 3.972 3.948 100.000 3.704 0.000 660.100 406.700 412.400               0.3250 320.100            
DSCMET_COMPS 2018-01-19 12:55:00 3.614 3.757 3.637 3.982 3.938 100.000 3.616 0.000 632.900 412.600 423.800               0.3990 336.800            
DSCMET_COMPS 2018-01-19 12:50:00 3.529 3.681 3.603 3.991 3.919 100.000 3.529 0.000 661.400 427.100 432.700               0.3160 331.800            
DSCMET_COMPS 2018-01-19 12:45:00 3.497 3.624 3.598 3.991 3.804 100.000 3.499 0.000 639.200 434.600 428.700               0.2990 315.100            
DSCMET_COMPS 2018-01-19 12:40:00 3.492 3.644 3.587 3.961 3.822 100.000 3.492 -0.000 654.200 419.600 437.800               0.2520 306.200            
DSCMET_COMPS 2018-01-19 12:35:00 3.468 3.627 3.614 3.916 3.938 100.000 3.469 0.000 634.300 403.400 415.700                 0.000            
DSCMET_COMPS 2018-01-19 12:30:00 3.462 3.531 3.513 3.860 3.864 100.000 3.468 0.000 640.500 408.000 413.300               0.3370 334.900            
DSCMET_COMPS 2018-01-19 12:25:00 3.420 3.597 3.545 3.736 3.785 100.000 3.421 -0.000 607.800 411.800 403.700               0.1170 323.500            
DSCMET_COMPS 2018-01-19 12:20:00 3.305 3.439 3.420 3.605 3.684 100.000 3.304 -0.000 641.600 405.700 419.600               0.2050 315.200            
DSCMET_COMPS 2018-01-19 12:15:00 3.272 3.367 3.355 3.530 3.532 100.000 3.274 0.000 625.100 434.600 421.300               0.2150 327.700            
DSCMET_COMPS 2018-01-19 12:10:00 3.294 3.363 3.275 3.549 3.427 100.000 3.295 -0.000 636.500 428.400 413.100               0.2630 330.100            
DSCMET_COMPS 2018-01-19 12:05:00 3.305 3.367 3.290 3.607 3.504 100.000 3.304 -0.000 637.600 424.400 409.800               0.3460 327.700            
DSCMET_COMPS 2018-01-19 12:00:00 3.351 3.410 3.333 3.634 3.516 100.000 3.356 0.000 612.300 406.600 431.600               0.1910 305.900            
DSCMET_COMPS 2018-01-19 11:55:00 3.351 3.489 3.413 3.650 3.552 100.000 3.352 0.000 635.400 403.000 448.700               0.2690 320.100            
DSCMET_COMPS 2018-01-19 11:50:00 3.312 3.444 3.379 3.650 3.638 100.000 3.310 0.000 651.100 396.000 427.400               0.1920 329.400            
DSCMET_COMPS 2018-01-19 11:45:00 3.242 3.391 3.320 3.569 3.613 100.000 3.243 0.000 655.600 417.400 442.400               0.1650 304.600            
DSCMET_COMPS 2018-01-19 11:40:00 3.130 3.288 3.312 3.458 3.568 100.000 3.130 -0.000 664.000 424.900 429.600               0.1340 306.300            
DSCMET_COMPS 2018-01-19 11:35:00 3.018 3.201 3.287 3.350 3.485 100.000 3.019 -0.000 638.400 413.400 434.900               0.0290 60.000            
DSCMET_COMPS 2018-01-19 11:30:00 3.009 3.100 3.148 3.248 3.427 100.000 3.015 0.000 627.500 415.900 420.500                 0.000            
DSCMET_COMPS 2018-01-19 11:25:00 2.955 3.062 3.086 3.153 3.241 100.000 2.956 0.000 658.600 406.000 416.800               0.0820 57.090            
DSCMET_COMPS 2018-01-19 11:20:00 2.902 3.021 2.943 3.073 3.136 100.000 2.900 0.000 636.200 396.900 430.000               0.0800 317.800            
DSCMET_COMPS 2018-01-19 11:15:00 2.817 2.904 2.866 3.002 3.042 100.000 2.820 0.000 634.900 407.800 431.200               0.1730 306.500            
DSCMET_COMPS 2018-01-19 11:10:00 2.713 2.846 2.866 2.966 2.866 100.000 2.711 0.000 631.300 411.700 429.200               0.2080 321.500            
DSCMET_COMPS 2018-01-19 11:05:00 2.743 2.812 2.778 2.991 2.768 100.000 2.747 0.000 664.200 414.100 428.900               0.2690 325.100            
DSCMET_COMPS 2018-01-19 11:00:00 2.731 2.781 2.699 2.972 2.864 100.000 2.732 0.000 661.400 422.500 447.600               0.2180 319.700            
DSCMET_COMPS 2018-01-19 10:55:00 2.699 2.755 2.676 2.959 2.887 100.000 2.699 0.000 652.900 427.700 463.500               0.2410 317.000            
DSCMET_COMPS 2018-01-19 10:50:00 2.729 2.772 2.712 2.947 2.940 100.000 2.730 0.000 661.600 435.600 455.000               0.2590 320.000            
DSCMET_COMPS 2018-01-19 10:45:00 2.802 2.935 2.849 2.904 2.876 100.000 2.803 -0.000 652.800 430.600 448.200               0.1110 285.000            
DSCMET_COMPS 2018-01-19 10:40:00 2.767 2.914 2.808 2.864 2.789 100.000 2.766 -0.000 633.700 431.600 442.900               0.1260 269.800            
DSCMET_COMPS 2018-01-19 10:35:00 2.741 2.866 2.765 2.827 2.724 100.000 2.745 0.000 645.700 417.900 458.900               0.1200 252.000            
DSCMET_COMPS 2018-01-19 10:30:00 2.679 2.843 2.726 2.803 2.691 100.000 2.679 0.000 673.100 423.000 447.300               0.0640 256.800            
DSCMET_COMPS 2018-01-19 10:25:00 2.670 2.822 2.704 2.796 2.646 100.000 2.671 0.000 660.600 416.100 440.700                 0.000            
DSCMET_COMPS 2018-01-19 10:20:00 2.658 2.822 2.730 2.771 2.694 100.000 2.660 0.000 616.000 424.000 415.900               0.1030 238.500            
DSCMET_COMPS 2018-01-19 10:15:00 2.641 2.789 2.715 2.745 2.667 100.000 2.640 0.000 650.500 406.400 431.000               0.1230 228.200            
DSCMET_COMPS 2018-01-19 10:10:00 2.688 2.784 2.666 2.725 2.647 100.000 2.690 0.000 663.300 402.400 445.900               0.1230 169.000            
DSCMET_COMPS 2018-01-19 10:05:00 2.626 2.762 2.651 2.714 2.600 100.000 2.628 0.000 639.100 415.700 460.300               0.0020 90.000            
DSCMET_COMPS 2018-01-19 10:00:00 2.582 2.736 2.629 2.699 2.543 100.000 2.582 0.000 637.700 399.600 443.400               0.0130 212.200            
DSCMET_COMPS 2018-01-19 09:55:00 2.550 2.686 2.608 2.678 2.550 100.000 2.551 0.000 614.500 401.400 440.800               0.0300 146.400            
DSCMET_COMPS 2018-01-19 09:50:00 2.519 2.681 2.580 2.674 2.494 100.000 2.520 0.000 614.000 415.100 450.200               0.0230 91.400            
DSCMET_COMPS 2018-01-19 09:45:00 2.482 2.637 2.569 2.675 2.475 100.000 2.481 0.000 623.100 420.300 439.100               0.0400 117.600            
DSCMET_COMPS 2018-01-19 09:40:00 2.457 2.613 2.555 2.657 2.495 100.000 2.464 0.000 615.000 399.100 430.500               0.0040 270.000            
DSCMET_COMPS 2018-01-19 09:35:00 2.491 2.634 2.570 2.628 2.449 100.000 2.493 0.000 644.800 414.100 424.600               0.1160 241.000            
DSCMET_COMPS 2018-01-19 09:30:00 2.491 2.665 2.593 2.592 2.510 100.000 2.489 0.000 626.500 409.300 447.500               0.0700 237.500            
DSCMET_COMPS 2018-01-19 09:25:00 2.464 2.625 2.533 2.554 2.505 100.000 2.465 0.000 604.300 401.700 433.500               0.1270 232.800            
DSCMET_COMPS 2018-01-19 09:20:00 2.415 2.569 2.491 2.516 2.442 100.000 2.414 0.000 621.800 397.500 421.900                 0.000            
DSCMET_COMPS 2018-01-19 09:15:00 2.444 2.525 2.459 2.482 2.479 100.000 2.449 0.000 645.500 391.300 426.100               0.1870 231.400            
DSCMET_COMPS 2018-01-19 09:10:00 2.418 2.538 2.454 2.442 2.507 100.000 2.420 0.000 613.700 397.100 437.800               0.0250 240.000            
DSCMET_COMPS 2018-01-19 09:05:00 2.352 2.524 2.453 2.398 2.481 100.000 2.351 0.000 613.100 394.000 440.100               0.0010 120.000            
DSCMET_COMPS 2018-01-19 09:00:00 2.360 2.494 2.420 2.348 2.379 100.000 2.360 0.000 624.200 418.500 443.300               0.0140 90.000            
DSCMET_COMPS 2018-01-19 08:55:00 2.306 2.468 2.401 2.297 2.330 100.000 2.308 0.000 617.100 408.000 434.000               0.0000 0.000            
DSCMET_COMPS 2018-01-19 08:50:00 2.262 2.401 2.297 2.254 2.321 100.000 2.262 0.000 608.200 386.400 421.700               0.0490 116.300            
DSCMET_COMPS 2018-01-19 08:45:00 2.318 2.352 2.244 2.219 2.257 100.000 2.326 0.000 639.100 410.800 437.900               0.1340 124.100            
DSCMET_COMPS 2018-01-19 08:40:00 2.206 2.309 2.212 2.182 2.257 100.000 2.207 0.000 611.600 418.300 436.100               0.2180 140.400            
DSCMET_COMPS 2018-01-19 08:35:00 2.206 2.311 2.191 2.137 2.191 100.000 2.205 0.000 618.000 419.600 438.000               0.1270 104.000            
DSCMET_COMPS 2018-01-19 08:30:00 2.148 2.257 2.130 2.113 2.125 100.000 2.149 0.000 616.300 406.500 447.700               0.1570 89.900            
DSCMET_COMPS 2018-01-19 08:25:00 2.097 2.221 2.109 2.098 2.073 100.000 2.098 0.000 630.500 410.100 442.800               0.0480 71.020            
DSCMET_COMPS 2018-01-19 08:20:00 2.079 2.190 2.079 2.087 2.090 100.000 2.078 0.000 612.100 408.700 423.200               0.0520 80.700            
DSCMET_COMPS 2018-01-19 08:15:00 2.096 2.182 2.056 2.068 2.084 100.000 2.103 0.000 595.800 398.300 410.600                 0.000            
DSCMET_COMPS 2018-01-19 08:10:00 2.071 2.154 2.046 2.058 2.035 100.000 2.070 0.000 597.200 391.800 410.100               0.1190 44.910            
DSCMET_COMPS 2018-01-19 08:05:00 2.011 2.190 2.076 2.039 2.039 100.000 2.010 0.000 607.100 389.300 405.100               0.0980 297.700            
DSCMET_COMPS 2018-01-19 08:00:00 2.015 2.151 2.016 2.018 2.026 100.000 2.016 0.000 596.400 387.500 407.500               0.0370 276.000            
DSCMET_COMPS 2018-01-19 07:55:00 1.984 2.125 1.995 2.014 1.991 100.000 1.985 0.000 610.200 397.000 418.900               0.0930 13.260            
DSCMET_COMPS 2018-01-19 07:50:00 2.065 2.169 2.013 2.013 1.991 100.000 2.069 0.000 603.100 392.900 417.200               0.0930 27.530            
DSCMET_COMPS 2018-01-19 07:45:00 2.048 2.180 2.039 2.013 2.011 100.000 2.053 0.000 598.900 387.900 420.400               0.1050 211.400            
DSCMET_COMPS 2018-01-19 07:40:00 1.986 2.141 2.063 2.001 2.000 100.000 1.984 0.000 605.600 388.100 406.500               0.1330 169.900            
DSCMET_COMPS 2018-01-19 07:35:00 1.973 2.149 2.003 1.992 2.017 100.000 1.975 0.000 614.400 408.900 403.200               0.0590 211.400            
DSCMET_COMPS 2018-01-19 07:30:00 2.008 2.095 1.942 1.990 1.992 100.000 2.010 0.000 604.100 409.200 408.000               0.1340 22.980            
DSCMET_COMPS 2018-01-19 07:25:00 1.962 2.117 1.999 1.983 1.972 100.000 1.961 0.000 594.600 405.400 401.600               0.0770 52.890            
DSCMET_COMPS 2018-01-19 07:20:00 1.979 2.098 2.002 1.976 1.955 100.000 1.982 0.000 599.500 401.400 412.000               0.0370 240.800            
DSCMET_COMPS 2018-01-19 07:15:00 1.959 2.084 1.972 1.974 1.947 100.000 1.962 0.000 601.000 397.600 414.700               0.0610 33.000            
DSCMET_COMPS 2018-01-19 07:10:00 1.950 2.065 1.966 1.963 1.956 100.000 1.949 0.000 612.200 387.400 408.300                 0.000            
DSCMET_COMPS 2018-01-19 07:05:00 1.925 2.098 1.986 1.957 1.943 100.000 1.926 0.000 625.500 391.300 405.500                 0.000            
DSCMET_COMPS 2018-01-19 07:00:00 1.919 2.094 1.944 1.956 1.947 100.000 1.920 0.000 579.400 391.100 407.400               0.0860 86.800            
DSCMET_COMPS 2018-01-19 06:55:00 1.940 2.073 1.945 1.944 1.949 100.000 1.941 -0.000 591.300 393.300 401.700               0.0400 21.560            
DSCMET_COMPS 2018-01-19 06:50:00 1.959 2.021 1.909 1.936 1.941 100.000 1.965 0.000 591.400 380.700 395.800               0.0240 52.410            
DSCMET_COMPS 2018-01-19 06:45:00 1.941 2.064 1.934 1.929 1.940 100.000 1.942 0.000 585.200 388.900 398.000               0.1520 350.400            
DSCMET_COMPS 2018-01-19 06:40:00 1.884 2.037 1.919 1.917 1.955 100.000 1.885 0.000 571.800 381.700 397.100               0.1180 345.400            
DSCMET_COMPS 2018-01-19 06:35:00 1.961 2.043 1.902 1.907 1.934 100.000 1.962 0.000 589.700 381.100 393.900               0.0820 16.420            
DSCMET_COMPS 2018-01-19 06:30:00 1.927 2.013 1.905 1.899 1.890 100.000 1.929 0.000 580.400 377.500 419.200               0.1410 346.000            
DSCMET_COMPS 2018-01-19 06:25:00 1.969 2.086 1.979 1.898 1.883 100.000 1.972 0.000 579.000 386.100 420.700               0.1290 26.670            
DSCMET_COMPS 2018-01-19 06:20:00 1.939 2.043 1.913 1.885 1.874 100.000 1.943 0.000 596.900 381.900 416.000               0.0390 237.500            
DSCMET_COMPS 2018-01-19 06:15:00 1.888 2.012 1.854 1.880 1.873 100.000 1.887 0.000 601.800 377.500 410.300               0.1380 7.674            
DSCMET_COMPS 2018-01-19 06:10:00 1.924 2.019 1.892 1.880 1.855 100.000 1.923 0.000 636.500 377.100 415.500               0.1300 277.100            
DSCMET_COMPS 2018-01-19 06:05:00 1.910 2.029 1.894 1.892 1.859 100.000 1.911 0.000 611.200 385.600 410.800                 0.000            
DSCMET_COMPS 2018-01-19 06:00:00 1.924 2.044 1.900 1.918 1.825 100.000 1.923 0.000 617.600 403.300 410.500                 0.000            
DSCMET_COMPS 2018-01-19 05:55:00 2.032 2.057 1.914 1.954 1.823 100.000 2.037 0.000 610.000 405.500 433.500               0.1410 105.500            
DSCMET_COMPS 2018-01-19 05:50:00 1.996 2.093 1.950 1.997 1.869 100.000 1.999 0.000 605.100 406.000 453.300               0.2520 109.800            
DSCMET_COMPS 2018-01-19 05:45:00 2.009 2.134 2.011 2.027 1.919 100.000 2.009 0.000 658.600 405.000 430.900               0.1410 101.100            
DSCMET_COMPS 2018-01-19 05:40:00 2.039 2.132 2.035 2.032 1.929 100.000 2.037 0.000 631.600 400.400 431.100               0.0290 81.400            
DSCMET_COMPS 2018-01-19 05:35:00 2.101 2.154 2.094 2.023 1.996 100.000 2.103 0.000 606.400 407.100 427.800               0.0820 81.200            
DSCMET_COMPS 2018-01-19 05:30:00 2.035 2.229 2.118 1.989 1.985 100.000 2.035 0.000 612.200 418.800 425.900               0.0370 240.000            
DSCMET_COMPS 2018-01-19 05:25:00 2.058 2.177 2.058 1.965 1.983 100.000 2.058 0.000 604.400 409.100 433.800               0.0760 153.100            
DSCMET_COMPS 2018-01-19 05:20:00 2.071 2.106 1.996 1.965 1.964 100.000 2.077 0.000 610.900 407.200 421.100               0.0590 89.200            
DSCMET_COMPS 2018-01-19 05:15:00 1.945 2.059 1.962 1.966 1.946 100.000 1.947 0.000 594.800 409.600 406.000               0.1070 49.480            
DSCMET_COMPS 2018-01-19 05:10:00 1.942 2.048 1.990 1.980 1.913 100.000 1.943 0.000 598.300 424.200 400.500               0.1360 31.200            
DSCMET_COMPS 2018-01-19 05:05:00 1.981 2.098 2.020 1.991 1.921 100.000 1.983 0.000 611.000 409.100 406.600               0.1420 341.200            
DSCMET_COMPS 2018-01-19 05:00:00 1.967 2.092 2.012 1.986 1.953 100.000 1.967 0.000 619.700 406.900 428.500               0.0710 79.890            
DSCMET_COMPS 2018-01-19 04:55:00 1.999 2.127 1.984 1.992 1.949 100.000 1.997 0.000 620.800 415.300 423.400                 0.000            
DSCMET_COMPS 2018-01-19 04:50:00 2.022 2.069 1.951 1.998 1.991 100.000 2.030 0.000 622.700 416.500 425.800               0.1880 314.200            
DSCMET_COMPS 2018-01-19 04:45:00 1.952 2.051 1.957 1.982 2.010 100.000 1.954 -0.000 608.200 414.500 420.300               0.1530 329.500            
DSCMET_COMPS 2018-01-19 04:40:00 1.931 2.050 1.919 1.957 1.979 100.000 1.931 0.000 623.800 416.000 407.800               0.0830 290.600            
DSCMET_COMPS 2018-01-19 04:35:00 1.940 2.005 1.904 1.950 1.940 100.000 1.941 -0.000 609.100 412.000 428.900               0.0760 296.900            
DSCMET_COMPS 2018-01-19 04:30:00 1.892 2.021 1.950 1.952 1.925 100.000 1.892 0.000 591.800 405.700 433.900               0.1270 326.800            
DSCMET_COMPS 2018-01-19 04:25:00 1.875 2.019 1.955 1.943 1.891 100.000 1.875 0.000 585.100 414.500 434.900               0.0960 349.600            
DSCMET_COMPS 2018-01-19 04:20:00 1.933 2.047 1.903 1.940 1.897 100.000 1.939 0.000 583.500 419.500 422.400               0.1130 314.800            
DSCMET_COMPS 2018-01-19 04:15:00 1.924 2.029 1.898 1.958 1.885 100.000 1.925 0.000 596.700 413.400 432.200               0.0990 310.200            
DSCMET_COMPS 2018-01-19 04:10:00 1.958 2.014 1.907 1.955 1.913 100.000 1.957 0.000 606.100 400.800 430.200               0.1760 320.800            
DSCMET_COMPS 2018-01-19 04:05:00 1.975 2.056 1.940 1.955 1.916 100.000 1.973 0.000 588.000 401.400 431.800               0.1840 309.100            
DSCMET_COMPS 2018-01-19 04:00:00 1.975 2.074 1.937 1.955 1.912 100.000 1.974 0.000 580.900 384.300 417.700               0.1260 75.900            
DSCMET_COMPS 2018-01-19 03:55:00 2.000 2.090 2.004 1.956 1.900 100.000 2.000 0.000 619.400 376.200 435.200               0.1800 188.000            
DSCMET_COMPS 2018-01-19 03:50:00 2.023 2.097 1.983 1.983 1.859 100.000 2.029 0.000 571.700 395.200 426.800                 0.000            
DSCMET_COMPS 2018-01-19 03:45:00 2.064 2.179 2.047 2.027 1.837 100.000 2.065 0.000 598.600 407.800 421.500               0.1450 102.400            
DSCMET_COMPS 2018-01-19 03:40:00 2.031 2.132 2.051 2.079 1.943 100.000 2.030 0.000 578.500 407.800 436.900               0.1370 85.200            
DSCMET_COMPS 2018-01-19 03:35:00 2.076 2.174 2.135 2.121 2.035 100.000 2.076 0.000 578.900 406.900 415.300               0.1970 344.900            
DSCMET_COMPS 2018-01-19 03:30:00 2.148 2.283 2.194 2.155 2.129 100.000 2.148 0.000 585.600 413.600 426.400               0.1670 103.300            
DSCMET_COMPS 2018-01-19 03:25:00 2.176 2.361 2.253 2.180 2.046 100.000 2.175 0.000 581.100 418.400 426.200               0.1370 106.600            
DSCMET_COMPS 2018-01-19 03:20:00 2.219 2.332 2.212 2.196 2.136 100.000 2.225 0.000 601.800 411.100 433.600               0.0660 79.770            
DSCMET_COMPS 2018-01-19 03:15:00 2.205 2.293 2.208 2.200 2.135 100.000 2.205 0.000 593.400 404.500 418.400               0.1630 58.200            
DSCMET_COMPS 2018-01-19 03:10:00 2.209 2.344 2.234 2.187 2.146 100.000 2.208 0.000 601.800 388.900 424.300               0.1020 72.420            
DSCMET_COMPS 2018-01-19 03:05:00 2.253 2.365 2.238 2.174 2.136 100.000 2.254 0.000 603.500 392.800 424.400               0.0650 227.800            
DSCMET_COMPS 2018-01-19 03:00:00 2.223 2.324 2.174 2.184 2.107 100.000 2.222 0.000 628.600 412.100 421.000               0.1070 331.700            
DSCMET_COMPS 2018-01-19 02:55:00 2.215 2.329 2.196 2.198 2.124 100.000 2.214 0.000 634.900 398.700 418.500               0.2070 313.900            
DSCMET_COMPS 2018-01-19 02:50:00 2.265 2.366 2.208 2.212 2.182 100.000 2.271 0.000 602.800 392.400 412.600               0.1720 304.400            
DSCMET_COMPS 2018-01-19 02:45:00 2.211 2.337 2.199 2.218 2.179 100.000 2.211 -0.000 601.600 384.700 416.100                 0.000            
DSCMET_COMPS 2018-01-19 02:40:00 2.215 2.376 2.265 2.206 2.213 100.000 2.214 0.000 592.000 381.100 414.900               0.0960 267.600            
DSCMET_COMPS 2018-01-19 02:35:00 2.195 2.325 2.230 2.212 2.112 100.000 2.196 0.000 596.600 383.800 417.300               0.1530 230.700            
DSCMET_COMPS 2018-01-19 02:30:00 2.144 2.281 2.161 2.226 2.122 100.000 2.143 0.000 612.300 419.400 438.000               0.0120 337.800            
DSCMET_COMPS 2018-01-19 02:25:00 2.189 2.297 2.211 2.237 2.161 100.000 2.186 -0.000 606.700 415.700 437.200               0.1660 306.600            
DSCMET_COMPS 2018-01-19 02:20:00 2.280 2.389 2.312 2.224 2.186 100.000 2.287 0.000 588.400 413.000 422.200               0.1200 275.800            
DSCMET_COMPS 2018-01-19 02:15:00 2.210 2.371 2.275 2.211 2.130 100.000 2.210 0.000 582.200 417.900 435.200               0.1340 123.700            
DSCMET_COMPS 2018-01-19 02:10:00 2.210 2.364 2.245 2.220 2.094 100.000 2.209 0.000 602.700 433.400 446.600               0.0630 112.000            
DSCMET_COMPS 2018-01-19 02:05:00 2.227 2.344 2.209 2.222 2.171 100.000 2.227 0.000 611.200 412.500 431.500               0.1360 315.900            
DSCMET_COMPS 2018-01-19 02:00:00 2.233 2.358 2.259 2.227 2.157 100.000 2.233 0.000 567.400 389.200 408.800               0.0970 43.560            
DSCMET_COMPS 2018-01-19 01:55:00 2.262 2.371 2.243 2.217 2.154 100.000 2.260 0.000 564.200 392.400 408.100               0.0890 119.100            
DSCMET_COMPS 2018-01-19 01:50:00 2.218 2.347 2.264 2.207 2.200 100.000 2.216 0.000 580.900 393.200 402.500               0.1510 116.700            
DSCMET_COMPS 2018-01-19 01:45:00 2.282 2.360 2.250 2.205 2.159 100.000 2.287 0.000 593.100 388.900 393.600               0.0300 223.700            
DSCMET_COMPS 2018-01-19 01:40:00 2.221 2.343 2.200 2.221 2.164 100.000 2.221 0.000 582.300 392.100 392.500                 0.000            
DSCMET_COMPS 2018-01-19 01:35:00 2.209 2.327 2.205 2.238 2.161 100.000 2.209 0.000 601.000 395.200 403.000               0.1590 13.250            
DSCMET_COMPS 2018-01-19 01:30:00 2.209 2.317 2.265 2.242 2.195 100.000 2.208 0.000 588.700 385.800 408.000               0.1290 60.280            
DSCMET_COMPS 2018-01-19 01:25:00 2.225 2.376 2.303 2.234 2.182 100.000 2.225 0.000 592.300 386.200 405.000               0.0430 270.900            
DSCMET_COMPS 2018-01-19 01:20:00 2.209 2.349 2.224 2.240 2.161 100.000 2.207 0.000 618.700 388.800 412.600               0.0200 297.200            
DSCMET_COMPS 2018-01-19 01:15:00 2.215 2.353 2.213 2.252 2.187 100.000 2.216 0.000 595.400 383.300 422.400               0.1170 313.700            
DSCMET_COMPS 2018-01-19 01:10:00 2.254 2.341 2.224 2.257 2.200 100.000 2.259 0.000 597.700 395.800 421.700               0.0700 56.310            
DSCMET_COMPS 2018-01-19 01:05:00 2.209 2.336 2.191 2.249 2.194 100.000 2.208 0.000 601.700 398.200 418.100               0.0620 284.600            
DSCMET_COMPS 2018-01-19 01:00:00 2.208 2.355 2.258 2.244 2.169 100.000 2.206 -0.000 610.800 384.500 411.800               0.0580 317.100            
DSCMET_COMPS 2018-01-19 00:55:00 2.179 2.307 2.206 2.261 2.165 100.000 2.179 0.000 622.200 379.600 424.100               0.0150 92.900            
DSCMET_COMPS 2018-01-19 00:50:00 2.221 2.312 2.210 2.271 2.162 100.000 2.220 0.000 605.700 393.600 427.000               0.1240 56.320            
DSCMET_COMPS 2018-01-19 00:45:00 2.210 2.344 2.267 2.262 2.207 100.000 2.209 0.000 610.700 387.500 437.100               0.0480 110.000            
DSCMET_COMPS 2018-01-19 00:40:00 2.233 2.357 2.304 2.256 2.222 100.000 2.236 0.000 589.500 404.600 419.800               0.1010 124.800            
DSCMET_COMPS 2018-01-19 00:35:00 2.246 2.393 2.275 2.238 2.177 100.000 2.249 0.000 574.000 409.600 416.800                 0.000            
DSCMET_COMPS 2018-01-19 00:30:00 2.234 2.340 2.258 2.228 2.140 100.000 2.233 0.000 574.500 412.100 415.400               0.0880 90.300            
DSCMET_COMPS 2018-01-19 00:25:00 2.231 2.349 2.261 2.214 2.211 100.000 2.231 0.000 588.700 412.400 429.400               0.1570 123.500            
DSCMET_COMPS 2018-01-19 00:20:00 2.230 2.377 2.269 2.196 2.181 100.000 2.231 0.000 594.400 396.500 433.000               0.0500 87.600            
DSCMET_COMPS 2018-01-19 00:15:00 2.208 2.343 2.246 2.190 2.152 100.000 2.208 -0.000 603.900 394.600 441.300               0.0550 53.230            
DSCMET_COMPS 2018-01-19 00:10:00 2.209 2.314 2.185 2.184 2.158 100.000 2.207 0.000 565.100 390.000 417.700               0.0210 50.180            
DSCMET_COMPS 2018-01-19 00:05:00 2.270 2.282 2.185 2.183 2.160 100.000 2.277 0.000 579.400 381.700 412.100               0.0770 30.310            
DSCMET_COMPS 2018-01-19 00:00:00 2.190 2.296 2.183 2.182 2.141 100.000 2.192 -0.000 575.300 398.900 406.200               0.0430 55.340            
DSCMET_COMPS 2018-01-18 23:55:00 2.180 2.269 2.164 2.182 2.128 100.000 2.180 0.000 572.400 400.300 403.400               0.0500 316.300            
DSCMET_COMPS 2018-01-18 23:50:00 2.208 2.328 2.187 2.178 2.148 100.000 2.207 -0.000 562.900 407.400 400.000               0.1320 16.820            
DSCMET_COMPS 2018-01-18 23:45:00 2.221 2.292 2.188 2.182 2.130 100.000 2.224 0.000 564.400 390.700 400.000               0.1150 121.900            
DSCMET_COMPS 2018-01-18 23:40:00 2.209 2.314 2.174 2.196 2.126 100.000 2.209 0.000 567.300 389.500 398.200               0.0260 114.700            
DSCMET_COMPS 2018-01-18 23:35:00 2.209 2.335 2.150 2.211 2.120 100.000 2.208 0.000 584.000 383.800 398.600               0.1310 306.400            
DSCMET_COMPS 2018-01-18 23:30:00 2.266 2.345 2.147 2.226 2.098 100.000 2.271 0.000 584.000 384.400 399.000                 0.000            
DSCMET_COMPS 2018-01-18 23:25:00 2.197 2.343 2.224 2.240 2.118 100.000 2.198 0.000 575.700 385.000 399.700               0.0680 125.000            
DSCMET_COMPS 2018-01-18 23:20:00 2.218 2.368 2.245 2.241 2.114 100.000 2.215 0.000 587.200 382.100 398.700               0.1820 151.400            
DSCMET_COMPS 2018-01-18 23:15:00 2.257 2.363 2.254 2.236 2.156 100.000 2.256 0.000 555.600 382.000 399.500               0.1290 225.300            
DSCMET_COMPS 2018-01-18 23:10:00 2.239 2.350 2.263 2.231 2.156 100.000 2.240 0.000 562.400 384.200 395.300               0.0730 157.900            
DSCMET_COMPS 2018-01-18 23:05:00 2.234 2.350 2.249 2.231 2.139 100.000 2.233 0.000 571.300 384.200 395.500               0.1020 126.600            
DSCMET_COMPS 2018-01-18 23:00:00 2.285 2.381 2.279 2.228 2.178 100.000 2.290 0.000 575.900 397.400 392.200               0.1330 116.000            
DSCMET_COMPS 2018-01-18 22:55:00 2.283 2.364 2.291 2.230 2.121 100.000 2.285 0.000 570.600 394.500 388.800               0.0470 351.600            
DSCMET_COMPS 2018-01-18 22:50:00 2.265 2.432 2.351 2.219 2.178 100.000 2.264 0.000 587.300 391.000 391.100               0.0560 238.900            
DSCMET_COMPS 2018-01-18 22:45:00 2.265 2.377 2.257 2.213 2.135 100.000 2.263 0.000 592.400 389.700 408.300               0.0160 129.400            
DSCMET_COMPS 2018-01-18 22:40:00 2.245 2.336 2.212 2.219 2.108 100.000 2.247 -0.000 559.500 387.300 401.700               0.0600 100.200            
DSCMET_COMPS 2018-01-18 22:35:00 2.249 2.371 2.264 2.228 2.134 100.000 2.248 0.000 562.200 382.000 401.500               0.0770 80.900            
DSCMET_COMPS 2018-01-18 22:30:00 2.162 2.330 2.250 2.249 2.089 100.000 2.163 0.000 557.600 373.500 398.200               0.1330 206.300            
DSCMET_COMPS 2018-01-18 22:25:00 2.286 2.372 2.324 2.259 2.122 100.000 2.291 0.000 551.500 374.600 397.900               0.1890 195.800            
DSCMET_COMPS 2018-01-18 22:20:00 2.271 2.391 2.255 2.271 2.135 100.000 2.268 0.000 569.200 378.900 402.100                 0.000            
DSCMET_COMPS 2018-01-18 22:15:00 2.319 2.459 2.340 2.271 2.165 100.000 2.318 0.000 573.300 382.500 407.700               0.0540 230.500            
DSCMET_COMPS 2018-01-18 22:10:00 2.317 2.389 2.258 2.269 2.178 100.000 2.317 0.000 586.200 380.900 404.900               0.1490 120.700            
DSCMET_COMPS 2018-01-18 22:05:00 2.246 2.410 2.299 2.262 2.174 100.000 2.243 0.000 602.700 376.000 387.100               0.1080 122.000            
DSCMET_COMPS 2018-01-18 22:00:00 2.186 2.347 2.268 2.260 2.150 100.000 2.184 0.000 601.200 378.900 396.100               0.0240 87.400            
DSCMET_COMPS 2018-01-18 21:55:00 2.292 2.303 2.244 2.266 2.184 100.000 2.298 0.000 616.900 388.600 390.700               0.0980 1.527            
DSCMET_COMPS 2018-01-18 21:50:00 2.257 2.313 2.258 2.268 2.221 100.000 2.258 0.000 614.000 392.500 385.600               0.1030 37.750            
DSCMET_COMPS 2018-01-18 21:45:00 2.274 2.381 2.291 2.285 2.153 100.000 2.272 -0.000 565.700 389.000 395.100               0.1090 92.900            
DSCMET_COMPS 2018-01-18 21:40:00 2.322 2.389 2.293 2.307 2.161 100.000 2.322 -0.000 556.300 389.100 400.900               0.1940 133.800            
DSCMET_COMPS 2018-01-18 21:35:00 2.356 2.447 2.354 2.315 2.278 100.000 2.359 0.000 559.600 389.300 402.600               0.2000 146.100            
DSCMET_COMPS 2018-01-18 21:30:00 2.288 2.405 2.311 2.334 2.269 100.000 2.286 0.000 558.700 387.700 409.600               0.1010 84.800            
DSCMET_COMPS 2018-01-18 21:25:00 2.320 2.419 2.289 2.370 2.304 100.000 2.323 0.000 557.000 388.700 402.500               0.1440 53.550            
DSCMET_COMPS 2018-01-18 21:20:00 2.270 2.393 2.314 2.412 2.306 100.000 2.270 0.000 555.100 394.200 397.400               0.1450 320.200            
DSCMET_COMPS 2018-01-18 21:15:00 2.393 2.468 2.446 2.430 2.331 100.000 2.392 -0.000 559.600 383.800 387.200                 0.000            
DSCMET_COMPS 2018-01-18 21:10:00 2.434 2.482 2.352 2.452 2.385 100.000 2.434 0.000 581.800 383.300 403.100               0.0750 325.300            
DSCMET_COMPS 2018-01-18 21:05:00 2.444 2.479 2.378 2.473 2.421 100.000 2.443 0.000 610.100 384.500 412.800               0.1450 303.800            
DSCMET_COMPS 2018-01-18 21:00:00 2.446 2.517 2.425 2.483 2.431 100.000 2.445 0.000 602.800 387.000 406.900               0.1060 326.400            
DSCMET_COMPS 2018-01-18 20:55:00 2.501 2.558 2.486 2.496 2.400 100.000 2.505 0.000 599.100 407.800 417.600               0.1660 51.950            
DSCMET_COMPS 2018-01-18 20:50:00 2.560 2.652 2.554 2.519 2.460 100.000 2.563 -0.000 588.000 395.000 420.500               0.0980 56.090            
DSCMET_COMPS 2018-01-18 20:45:00 2.515 2.628 2.512 2.546 2.509 100.000 2.514 0.000 629.800 396.900 420.500               0.0580 84.000            
DSCMET_COMPS 2018-01-18 20:40:00 2.561 2.610 2.470 2.573 2.533 100.000 2.561 0.000 630.200 404.200 422.200               0.0540 290.400            
DSCMET_COMPS 2018-01-18 20:35:00 2.579 2.640 2.460 2.609 2.528 100.000 2.581 0.000 582.100 410.000 424.700               0.1570 311.300            
DSCMET_COMPS 2018-01-18 20:30:00 2.562 2.668 2.576 2.637 2.613 100.000 2.561 0.000 589.400 401.100 434.700               0.1360 334.300            
DSCMET_COMPS 2018-01-18 20:25:00 2.593 2.719 2.601 2.666 2.611 100.000 2.596 -0.000 618.200 401.000 435.400               0.1000 297.400            
DSCMET_COMPS 2018-01-18 20:20:00 2.674 2.726 2.590 2.705 2.570 100.000 2.679 0.000 604.600 400.400 440.600               0.1400 301.100            
DSCMET_COMPS 2018-01-18 20:15:00 2.675 2.796 2.721 2.730 2.618 100.000 2.675 0.000 585.100 405.200 434.200               0.0820 288.900            
DSCMET_COMPS 2018-01-18 20:10:00 2.727 2.795 2.728 2.741 2.659 100.000 2.724 -0.000 582.800 404.800 425.600                 0.000            
DSCMET_COMPS 2018-01-18 20:05:00 2.742 2.830 2.767 2.744 2.698 100.000 2.744 -0.000 580.900 407.800 425.300               0.0660 42.030            
DSCMET_COMPS 2018-01-18 20:00:00 2.737 2.826 2.740 2.759 2.706 100.000 2.738 0.000 580.300 409.400 418.000               0.0340 356.600            
DSCMET_COMPS 2018-01-18 19:55:00 2.762 2.770 2.710 2.773 2.738 100.000 2.764 0.000 590.900 413.800 412.200               0.0820 320.000            
DSCMET_COMPS 2018-01-18 19:50:00 2.740 2.820 2.752 2.790 2.712 100.000 2.742 0.000 594.900 411.200 419.500               0.1850 308.000            
DSCMET_COMPS 2018-01-18 19:45:00 2.803 2.901 2.824 2.798 2.710 100.000 2.803 0.000 632.600 406.500 428.800               0.1260 299.700            
DSCMET_COMPS 2018-01-18 19:40:00 2.835 2.976 2.835 2.815 2.745 100.000 2.835 0.000 601.500 396.900 418.300               0.0940 45.480            
DSCMET_COMPS 2018-01-18 19:35:00 2.891 2.969 2.800 2.824 2.790 100.000 2.895 0.000 633.500 413.000 422.300               0.0170 71.930            
DSCMET_COMPS 2018-01-18 19:30:00 2.893 2.961 2.798 2.834 2.832 100.000 2.893 -0.000 590.200 403.100 418.200               0.0100 302.000            
DSCMET_COMPS 2018-01-18 19:25:00 2.943 3.045 2.830 2.837 2.839 100.000 2.948 0.000 586.700 400.100 410.500               0.0440 295.800            
DSCMET_COMPS 2018-01-18 19:20:00 2.911 3.016 2.851 2.825 2.860 100.000 2.912 0.000 623.400 395.200 409.000               0.0510 290.100            
DSCMET_COMPS 2018-01-18 19:15:00 2.819 2.918 2.800 2.833 2.780 100.000 2.819 0.000 606.500 393.600 420.000               0.0160 285.500            
DSCMET_COMPS 2018-01-18 19:10:00 2.792 2.887 2.758 2.860 2.744 100.000 2.790 0.000 634.600 403.800 422.300               0.0680 66.220            
DSCMET_COMPS 2018-01-18 19:05:00 2.826 2.940 2.779 2.900 2.768 100.000 2.826 0.000 599.100 415.300 418.700                 0.000            
DSCMET_COMPS 2018-01-18 19:00:00 2.901 3.004 2.762 2.981 2.731 100.000 2.900 0.000 638.900 422.600 411.700               0.1050 305.000            
DSCMET_COMPS 2018-01-18 18:55:00 3.056 3.105 2.928 3.061 2.832 100.000 3.061 0.000 635.300 429.100 417.800               0.2020 309.300            
DSCMET_COMPS 2018-01-18 18:50:00 3.044 3.158 2.992 3.119 2.955 100.000 3.046 0.000 626.500 414.700 416.500               0.1700 303.400            
DSCMET_COMPS 2018-01-18 18:45:00 3.008 3.116 3.048 3.151 3.023 100.000 3.006 0.000 634.500 424.000 434.200               0.1060 26.090            
DSCMET_COMPS 2018-01-18 18:40:00 3.113 3.277 3.231 3.142 3.054 100.000 3.113 -0.000 669.100 435.600 423.100               0.1510 262.600            
DSCMET_COMPS 2018-01-18 18:35:00 3.096 3.229 3.102 3.159 2.989 100.000 3.096 0.000 655.200 419.400 415.900               0.1510 205.900            
DSCMET_COMPS 2018-01-18 18:30:00 3.072 3.216 3.071 3.193 2.993 100.000 3.071 0.000 642.700 418.900 416.100               0.0810 261.600            
DSCMET_COMPS 2018-01-18 18:25:00 3.227 3.290 3.180 3.195 3.137 100.000 3.231 0.000 635.300 407.400 444.800               0.2010 298.500            
DSCMET_COMPS 2018-01-18 18:20:00 3.211 3.371 3.266 3.174 3.128 100.000 3.213 0.000 640.400 420.800 445.100               0.1810 234.900            
DSCMET_COMPS 2018-01-18 18:15:00 3.157 3.348 3.226 3.164 2.993 100.000 3.156 0.000 630.700 425.800 437.400               0.2660 215.500            
DSCMET_COMPS 2018-01-18 18:10:00 3.161 3.266 3.178 3.170 3.021 100.000 3.162 0.000 641.400 425.600 431.700               0.3030 140.700            
DSCMET_COMPS 2018-01-18 18:05:00 3.167 3.287 3.174 3.172 3.088 100.000 3.167 0.000 638.900 422.400 447.400               0.0840 84.400            
DSCMET_COMPS 2018-01-18 18:00:00 3.133 3.250 3.174 3.163 3.140 100.000 3.133 0.000 645.500 419.400 432.800                 0.000            
DSCMET_COMPS 2018-01-18 17:55:00 3.157 3.274 3.199 3.146 3.098 100.000 3.159 0.000 630.400 436.200 422.200               0.1640 156.200            
DSCMET_COMPS 2018-01-18 17:50:00 3.207 3.311 3.164 3.127 3.083 100.000 3.211 0.000 657.900 421.300 410.100               0.1100 216.700            
DSCMET_COMPS 2018-01-18 17:45:00 3.137 3.225 3.115 3.128 3.032 100.000 3.136 0.000 630.000 431.900 423.900               0.0540 97.900            
DSCMET_COMPS 2018-01-18 17:40:00 3.103 3.234 3.109 3.143 3.068 100.000 3.101 0.000 634.600 431.300 438.300               0.1110 109.400            
DSCMET_COMPS 2018-01-18 17:35:00 3.137 3.276 3.164 3.151 3.061 100.000 3.139 0.000 658.500 431.000 426.800               0.2440 129.000            
DSCMET_COMPS 2018-01-18 17:30:00 3.165 3.285 3.193 3.172 3.074 100.000 3.166 0.000 650.300 424.800 438.000               0.2370 122.500            
DSCMET_COMPS 2018-01-18 17:25:00 3.165 3.311 3.174 3.195 3.122 100.000 3.164 0.000 643.700 427.400 434.900               0.1410 32.350            
DSCMET_COMPS 2018-01-18 17:20:00 3.254 3.300 3.215 3.218 3.091 100.000 3.260 -0.000 657.000 428.800 446.100               0.2440 166.400            
DSCMET_COMPS 2018-01-18 17:15:00 3.228 3.328 3.192 3.238 3.143 100.000 3.231 0.000 665.400 453.500 455.600               0.1420 92.300            
DSCMET_COMPS 2018-01-18 17:10:00 3.245 3.335 3.207 3.256 3.205 100.000 3.245 0.000 691.200 429.900 451.000               0.1850 34.320            
DSCMET_COMPS 2018-01-18 17:05:00 3.245 3.335 3.261 3.279 3.208 100.000 3.246 0.000 692.600 454.000 442.500               0.1450 23.400            
DSCMET_COMPS 2018-01-18 17:00:00 3.340 3.444 3.345 3.314 3.178 100.000 3.341 0.000 690.200 438.200 464.600               0.1650 37.340            
DSCMET_COMPS 2018-01-18 16:55:00 3.427 3.535 3.379 3.351 3.187 100.000 3.426 -0.000 691.900 442.700 463.100                 0.000            
DSCMET_COMPS 2018-01-18 16:50:00 3.419 3.495 3.371 3.356 3.267 100.000 3.425 -0.000 695.200 425.400 453.600               0.1400 309.700            
DSCMET_COMPS 2018-01-18 16:45:00 3.368 3.439 3.317 3.364 3.360 100.000 3.371 0.000 693.600 451.300 468.100               0.1040 84.200            
DSCMET_COMPS 2018-01-18 16:40:00 3.339 3.475 3.307 3.374 3.329 100.000 3.340 0.000 694.500 457.000 471.200               0.1780 334.700            
DSCMET_COMPS 2018-01-18 16:35:00 3.397 3.549 3.433 3.374 3.309 100.000 3.396 -0.000 682.800 438.300 470.300               0.2470 228.700            
DSCMET_COMPS 2018-01-18 16:30:00 3.399 3.499 3.321 3.412 3.372 100.000 3.403 0.000 671.000 450.800 441.600               0.1760 225.500            
DSCMET_COMPS 2018-01-18 16:25:00 3.447 3.558 3.411 3.449 3.362 100.000 3.449 0.000 671.000 459.500 453.800               0.1880 296.900            
DSCMET_COMPS 2018-01-18 16:20:00 3.432 3.536 3.394 3.477 3.392 100.000 3.432 0.000 649.600 450.100 445.500               0.2590 316.000            
DSCMET_COMPS 2018-01-18 16:15:00 3.537 3.568 3.481 3.486 3.447 100.000 3.544 0.000 648.600 442.200 453.300               0.1800 318.700            
DSCMET_COMPS 2018-01-18 16:10:00 3.549 3.654 3.506 3.512 3.480 100.000 3.550 0.000 674.100 434.300 438.800               0.2770 322.000            
DSCMET_COMPS 2018-01-18 16:05:00 3.508 3.644 3.502 3.553 3.537 100.000 3.509 0.000 639.900 432.600 444.800               0.3140 319.000            
DSCMET_COMPS 2018-01-18 16:00:00 3.557 3.662 3.555 3.548 3.519 100.000 3.560 0.000 661.200 409.700 447.900               0.3060 307.700            
DSCMET_COMPS 2018-01-18 15:55:00 3.544 3.663 3.525 3.579 3.590 100.000 3.546 0.000 687.600 415.700 440.700               0.2400 294.500            
DSCMET_COMPS 2018-01-18 15:50:00 3.522 3.649 3.529 3.651 3.562 100.000 3.521 0.000 684.300 430.300 451.100               0.5300 325.600            
DSCMET_COMPS 2018-01-18 15:45:00 3.723 3.735 3.599 3.683 3.616 100.000 3.730 0.000 680.700 443.900 441.600                 0.000            
DSCMET_COMPS 2018-01-18 15:40:00 3.681 3.718 3.594 3.724 3.651 100.000 3.683 0.000 694.600 439.600 431.700               0.4620 338.000            
DSCMET_COMPS 2018-01-18 15:35:00 3.708 3.802 3.683 3.778 3.711 100.000 3.710 0.000 703.200 448.300 457.900               0.3840 345.100            
DSCMET_COMPS 2018-01-18 15:30:00 3.732 3.766 3.656 3.814 3.712 100.000 3.734 -0.000 691.700 428.900 431.500               0.2480 358.500            
DSCMET_COMPS 2018-01-18 15:25:00 3.783 3.838 3.725 3.838 3.757 100.000 3.785 0.000 681.200 437.700 448.600               0.3710 322.600            
DSCMET_COMPS 2018-01-18 15:20:00 3.807 3.866 3.683 3.855 3.795 100.000 3.809 0.000 707.400 455.700 458.400               0.2420 313.200            
DSCMET_COMPS 2018-01-18 15:15:00 4.146 3.918 3.788 3.872 3.785 100.000 4.153 0.000 690.300 446.900 461.100               0.2790 321.500            
DSCMET_COMPS 2018-01-18 15:10:00 4.265 3.881 3.738 3.892 3.731 100.000 4.269 0.000 703.200 459.200 435.700               0.2250 341.600            
DSCMET_COMPS 2018-01-18 15:05:00 4.309 3.955 3.764 3.938 3.823 100.000 4.312 0.000 704.300 463.200 466.000               0.2670 334.000            
DSCMET_COMPS 2018-01-18 15:00:00 4.366 3.969 3.814 4.020 3.846 100.000 4.370 0.000 714.600 460.200 458.200               0.3100 352.200            
DSCMET_COMPS 2018-01-18 14:55:00 4.443 4.005 3.863 4.129 3.960 100.000 4.447 0.000 716.200 473.100 466.200               0.3060 338.300            
DSCMET_COMPS 2018-01-18 14:50:00 4.529 4.151 3.989 4.240 4.095 100.000 4.533 0.000 726.900 453.000 460.500               0.3130 335.600            
DSCMET_COMPS 2018-01-18 14:45:00 4.695 4.246 4.091 4.351 4.180 100.000 4.705 0.000 738.800 458.700 475.000               0.3770 355.000            
DSCMET_COMPS 2018-01-18 14:40:00 4.831 4.282 4.159 4.486 4.254 100.000 4.836 0.000 710.000 463.300 470.800                 0.000            
DSCMET_COMPS 2018-01-18 14:35:00 4.950 4.462 4.323 4.652 4.341 100.000 4.955 0.000 724.100 475.000 484.500               0.4560 354.700            
DSCMET_COMPS 2018-01-18 14:30:00 5.026 4.639 4.534 4.767 4.452 100.000 5.031 0.000 735.200 473.100 473.000               0.3360 311.500